<?xml version="1.0" encoding="UTF-8" standalone="no" ?>
<gpx xmlns="http://www.topografix.com/GPX/1/1" xmlns:xsi="http://www.w3.org/2001/XMLSchema-instance" xsi:schemaLocation="http://www.topografix.com/GPX/1/1 http://www.topografix.com/GPX/1/1/gpx.xsd" version="1.1" creator="VisuGPX - https://www.visugpx.com">
  <metadata>
    <name>Rialle_Autour_8-22km</name>
    <desc><![CDATA[gnerando idor:6722432_8173011_8173016_12476141_12476155_12511586_12530915_12533090_13050648]]></desc>
  </metadata>
  <wpt lat="47.55079" lon="-1.37723">
    <ele>56.1</ele>
    <name><![CDATA[0000725]]></name>
    <type><![CDATA[Point de départ]]></type>
  </wpt>
  <wpt lat="47.52565" lon="-1.40637">
    <ele>31.3</ele>
    <name><![CDATA[0000726]]></name>
    <desc><![CDATA[<p><br /><h3>Nom: Segment: 1</h3><br />Heure de départ: 05/30/2021 09:30<br/>Heure d'arrivée: 05/30/2021 12:31<br/>Distance: 15,3km (03:00)<br/>Temps déplacement: 02:45<br/>Vitesse moyenne: 5,07 km/h<br/>Vitesse moyenne mouv.: 5,52 km/h<br/>Vitesse Max.: 20,75 km/h<br/>Altitude minimale: 29 m<br/>Altitude maximale: 61 m<br/>Vitesse de montée: 135,3 m/h<br/>Vitesse de descente: -132,1 m/h<br/>Gain d'altitude: 143 m<br/>Perte d'altitude: -165 m<br/>Temps de montée: 01:03<br/>Temps de descente: 01:15<br/></p>]]></desc>
    <type><![CDATA[Point d'arrivée]]></type>
  </wpt>
  <wpt lat="47.52578" lon="-1.40648">
    <ele>31.5</ele>
    <name><![CDATA[0000727]]></name>
    <type><![CDATA[Point de départ]]></type>
  </wpt>
  <wpt lat="47.55083" lon="-1.37712">
    <ele>56.4</ele>
    <name><![CDATA[0000728]]></name>
    <desc><![CDATA[<p><br /><h3>Nom: Segment: 2</h3><br />Heure de départ: 05/30/2021 13:12<br/>Heure d'arrivée: 05/30/2021 14:32<br/>Distance: 6,7km (01:19)<br/>Temps déplacement: 01:16<br/>Vitesse moyenne: 5,05 km/h<br/>Vitesse moyenne mouv.: 5,23 km/h<br/>Vitesse Max.: 8,06 km/h<br/>Altitude minimale: 34 m<br/>Altitude maximale: 68 m<br/>Vitesse de montée: 179 m/h<br/>Vitesse de descente: -145,6 m/h<br/>Gain d'altitude: 102 m<br/>Perte d'altitude: -77 m<br/>Temps de montée: 00:34<br/>Temps de descente: 00:32<br/></p>]]></desc>
    <type><![CDATA[Point d'arrivée]]></type>
  </wpt>
  <trk>
    <name><![CDATA[Riaillé_ProvostiereVioreau_22km-13150648]]></name>
    <desc><![CDATA[<p>Heure de départ: 05/30/2021 09:30<br/>Heure d'arrivée: 05/30/2021 14:32<br/>Distance: 22 km (04:20)<br/>Temps déplacement: 04:02<br/>Vitesse moyenne: 5,07 km/h<br/>Vitesse moyenne mouv.: 5,44 km/h<br/>Vitesse Max.: 20,75 km/h<br/>Altitude minimale: 29 m<br/>Altitude maximale: 68 m<br/>Vitesse de montée: 122,7 m/h<br/>Vitesse de descente: -103,2 m/h<br/>Gain d'altitude: 214 m<br/>Perte d'altitude: -215 m<br/>Temps de montée: 01:45<br/>Temps de descente: 02:05<br/></p><hr align="center" width="480" style="height: 2px; width: 517px"/>]]></desc>
    <extensions>
      <line xmlns="http://www.topografix.com/GPX/gpx_style/0/2">
        <color>0000FF</color>
        <width>4</width>
      </line>
    </extensions>
    <trkseg>
      <trkpt lat="47.55083" lon="-1.37712">
        <ele>56.3</ele>
        <time>2021-05-30T12:32:22Z</time>
      </trkpt>
      <trkpt lat="47.55083" lon="-1.37681">
        <ele>57.18</ele>
        <time>2021-05-30T12:32:06Z</time>
      </trkpt>
      <trkpt lat="47.55084" lon="-1.37648">
        <ele>59</ele>
        <time>2021-05-30T12:31:50Z</time>
      </trkpt>
      <trkpt lat="47.55087" lon="-1.37622">
        <ele>59</ele>
        <time>2021-05-30T12:31:34Z</time>
      </trkpt>
      <trkpt lat="47.55098" lon="-1.37595">
        <ele>59.18</ele>
        <time>2021-05-30T12:31:14Z</time>
      </trkpt>
      <trkpt lat="47.55091" lon="-1.37571">
        <ele>60.82</ele>
        <time>2021-05-30T12:30:54Z</time>
      </trkpt>
      <trkpt lat="47.55069" lon="-1.37573">
        <ele>59</ele>
        <time>2021-05-30T12:30:38Z</time>
      </trkpt>
      <trkpt lat="47.55048" lon="-1.37576">
        <ele>59</ele>
        <time>2021-05-30T12:30:22Z</time>
      </trkpt>
      <trkpt lat="47.55026" lon="-1.37576">
        <ele>59</ele>
        <time>2021-05-30T12:30:06Z</time>
      </trkpt>
      <trkpt lat="47.55003" lon="-1.37573">
        <ele>58.4</ele>
        <time>2021-05-30T12:29:50Z</time>
      </trkpt>
      <trkpt lat="47.5498" lon="-1.37574">
        <ele>57</ele>
        <time>2021-05-30T12:29:34Z</time>
      </trkpt>
      <trkpt lat="47.54962" lon="-1.37575">
        <ele>57</ele>
        <time>2021-05-30T12:29:22Z</time>
      </trkpt>
      <trkpt lat="47.5494" lon="-1.37576">
        <ele>57</ele>
        <time>2021-05-30T12:29:06Z</time>
      </trkpt>
      <trkpt lat="47.54919" lon="-1.37576">
        <ele>56.7</ele>
        <time>2021-05-30T12:28:50Z</time>
      </trkpt>
      <trkpt lat="47.54895" lon="-1.37579">
        <ele>56</ele>
        <time>2021-05-30T12:28:34Z</time>
      </trkpt>
      <trkpt lat="47.54874" lon="-1.37579">
        <ele>56</ele>
        <time>2021-05-30T12:28:18Z</time>
      </trkpt>
      <trkpt lat="47.54853" lon="-1.37581">
        <ele>55.95</ele>
        <time>2021-05-30T12:28:02Z</time>
      </trkpt>
      <trkpt lat="47.54832" lon="-1.37581">
        <ele>50</ele>
        <time>2021-05-30T12:27:46Z</time>
      </trkpt>
      <trkpt lat="47.54811" lon="-1.37582">
        <ele>50</ele>
        <time>2021-05-30T12:27:30Z</time>
      </trkpt>
      <trkpt lat="47.5479" lon="-1.37581">
        <ele>50</ele>
        <time>2021-05-30T12:27:14Z</time>
      </trkpt>
      <trkpt lat="47.54769" lon="-1.37583">
        <ele>49.97</ele>
        <time>2021-05-30T12:26:58Z</time>
      </trkpt>
      <trkpt lat="47.54749" lon="-1.3758">
        <ele>45.97</ele>
        <time>2021-05-30T12:26:42Z</time>
      </trkpt>
      <trkpt lat="47.54735" lon="-1.37598">
        <ele>45</ele>
        <time>2021-05-30T12:26:26Z</time>
      </trkpt>
      <trkpt lat="47.54734" lon="-1.37628">
        <ele>45</ele>
        <time>2021-05-30T12:26:10Z</time>
      </trkpt>
      <trkpt lat="47.54733" lon="-1.3766">
        <ele>44.4</ele>
        <time>2021-05-30T12:25:54Z</time>
      </trkpt>
      <trkpt lat="47.54733" lon="-1.37692">
        <ele>43</ele>
        <time>2021-05-30T12:25:38Z</time>
      </trkpt>
      <trkpt lat="47.54732" lon="-1.37725">
        <ele>43.01</ele>
        <time>2021-05-30T12:25:22Z</time>
      </trkpt>
      <trkpt lat="47.54733" lon="-1.37757">
        <ele>44</ele>
        <time>2021-05-30T12:25:06Z</time>
      </trkpt>
      <trkpt lat="47.54732" lon="-1.37786">
        <ele>44</ele>
        <time>2021-05-30T12:24:50Z</time>
      </trkpt>
      <trkpt lat="47.54732" lon="-1.37816">
        <ele>44.05</ele>
        <time>2021-05-30T12:24:34Z</time>
      </trkpt>
      <trkpt lat="47.54721" lon="-1.37839">
        <ele>46</ele>
        <time>2021-05-30T12:24:18Z</time>
      </trkpt>
      <trkpt lat="47.54701" lon="-1.37855">
        <ele>46</ele>
        <time>2021-05-30T12:24:02Z</time>
      </trkpt>
      <trkpt lat="47.54679" lon="-1.37866">
        <ele>46</ele>
        <time>2021-05-30T12:23:46Z</time>
      </trkpt>
      <trkpt lat="47.5466" lon="-1.37879">
        <ele>46</ele>
        <time>2021-05-30T12:23:30Z</time>
      </trkpt>
      <trkpt lat="47.54642" lon="-1.3789">
        <ele>46</ele>
        <time>2021-05-30T12:23:14Z</time>
      </trkpt>
      <trkpt lat="47.54623" lon="-1.37904">
        <ele>46</ele>
        <time>2021-05-30T12:22:58Z</time>
      </trkpt>
      <trkpt lat="47.54601" lon="-1.37921">
        <ele>45.97</ele>
        <time>2021-05-30T12:22:42Z</time>
      </trkpt>
      <trkpt lat="47.54583" lon="-1.37934">
        <ele>42</ele>
        <time>2021-05-30T12:22:26Z</time>
      </trkpt>
      <trkpt lat="47.54563" lon="-1.37947">
        <ele>42</ele>
        <time>2021-05-30T12:22:10Z</time>
      </trkpt>
      <trkpt lat="47.54543" lon="-1.37961">
        <ele>42</ele>
        <time>2021-05-30T12:21:54Z</time>
      </trkpt>
      <trkpt lat="47.54524" lon="-1.37973">
        <ele>42</ele>
        <time>2021-05-30T12:21:38Z</time>
      </trkpt>
      <trkpt lat="47.54504" lon="-1.37987">
        <ele>42</ele>
        <time>2021-05-30T12:21:22Z</time>
      </trkpt>
      <trkpt lat="47.54483" lon="-1.37999">
        <ele>42</ele>
        <time>2021-05-30T12:21:06Z</time>
      </trkpt>
      <trkpt lat="47.54467" lon="-1.38018">
        <ele>42</ele>
        <time>2021-05-30T12:20:50Z</time>
      </trkpt>
      <trkpt lat="47.54465" lon="-1.38053">
        <ele>42</ele>
        <time>2021-05-30T12:20:34Z</time>
      </trkpt>
      <trkpt lat="47.54467" lon="-1.38083">
        <ele>42</ele>
        <time>2021-05-30T12:20:18Z</time>
      </trkpt>
      <trkpt lat="47.54469" lon="-1.38114">
        <ele>42</ele>
        <time>2021-05-30T12:20:02Z</time>
      </trkpt>
      <trkpt lat="47.54469" lon="-1.38145">
        <ele>42.05</ele>
        <time>2021-05-30T12:19:46Z</time>
      </trkpt>
      <trkpt lat="47.54471" lon="-1.38175">
        <ele>44</ele>
        <time>2021-05-30T12:19:30Z</time>
      </trkpt>
      <trkpt lat="47.54472" lon="-1.38205">
        <ele>44</ele>
        <time>2021-05-30T12:19:14Z</time>
      </trkpt>
      <trkpt lat="47.5447" lon="-1.38237">
        <ele>44</ele>
        <time>2021-05-30T12:18:45Z</time>
      </trkpt>
      <trkpt lat="47.54451" lon="-1.38244">
        <ele>44</ele>
        <time>2021-05-30T12:18:29Z</time>
      </trkpt>
      <trkpt lat="47.54428" lon="-1.38248">
        <ele>44.09</ele>
        <time>2021-05-30T12:18:12Z</time>
      </trkpt>
      <trkpt lat="47.54404" lon="-1.38251">
        <ele>45</ele>
        <time>2021-05-30T12:17:54Z</time>
      </trkpt>
      <trkpt lat="47.54383" lon="-1.38258">
        <ele>45</ele>
        <time>2021-05-30T12:17:37Z</time>
      </trkpt>
      <trkpt lat="47.54365" lon="-1.38263">
        <ele>45</ele>
        <time>2021-05-30T12:17:21Z</time>
      </trkpt>
      <trkpt lat="47.54345" lon="-1.38269">
        <ele>45.08</ele>
        <time>2021-05-30T12:17:04Z</time>
      </trkpt>
      <trkpt lat="47.54324" lon="-1.38276">
        <ele>48</ele>
        <time>2021-05-30T12:16:48Z</time>
      </trkpt>
      <trkpt lat="47.54305" lon="-1.38282">
        <ele>48</ele>
        <time>2021-05-30T12:16:28Z</time>
      </trkpt>
      <trkpt lat="47.54285" lon="-1.38285">
        <ele>48</ele>
        <time>2021-05-30T12:16:12Z</time>
      </trkpt>
      <trkpt lat="47.54266" lon="-1.38292">
        <ele>47.99</ele>
        <time>2021-05-30T12:15:56Z</time>
      </trkpt>
      <trkpt lat="47.54245" lon="-1.38299">
        <ele>47</ele>
        <time>2021-05-30T12:15:40Z</time>
      </trkpt>
      <trkpt lat="47.54227" lon="-1.38306">
        <ele>47</ele>
        <time>2021-05-30T12:15:24Z</time>
      </trkpt>
      <trkpt lat="47.54204" lon="-1.38309">
        <ele>47</ele>
        <time>2021-05-30T12:15:08Z</time>
      </trkpt>
      <trkpt lat="47.54184" lon="-1.38316">
        <ele>46.99</ele>
        <time>2021-05-30T12:14:52Z</time>
      </trkpt>
      <trkpt lat="47.54163" lon="-1.38323">
        <ele>46</ele>
        <time>2021-05-30T12:14:04Z</time>
      </trkpt>
      <trkpt lat="47.54145" lon="-1.38325">
        <ele>46</ele>
        <time>2021-05-30T12:13:32Z</time>
      </trkpt>
      <trkpt lat="47.54125" lon="-1.3833">
        <ele>45.99</ele>
        <time>2021-05-30T12:13:16Z</time>
      </trkpt>
      <trkpt lat="47.54105" lon="-1.38334">
        <ele>45</ele>
        <time>2021-05-30T12:13:00Z</time>
      </trkpt>
      <trkpt lat="47.54083" lon="-1.38338">
        <ele>45</ele>
        <time>2021-05-30T12:12:44Z</time>
      </trkpt>
      <trkpt lat="47.54062" lon="-1.38342">
        <ele>45</ele>
        <time>2021-05-30T12:12:28Z</time>
      </trkpt>
      <trkpt lat="47.54044" lon="-1.38348">
        <ele>45</ele>
        <time>2021-05-30T12:12:12Z</time>
      </trkpt>
      <trkpt lat="47.54024" lon="-1.38357">
        <ele>45</ele>
        <time>2021-05-30T12:11:56Z</time>
      </trkpt>
      <trkpt lat="47.54004" lon="-1.38363">
        <ele>45.3</ele>
        <time>2021-05-30T12:11:40Z</time>
      </trkpt>
      <trkpt lat="47.53983" lon="-1.38367">
        <ele>46</ele>
        <time>2021-05-30T12:11:24Z</time>
      </trkpt>
      <trkpt lat="47.53965" lon="-1.38381">
        <ele>46</ele>
        <time>2021-05-30T12:11:08Z</time>
      </trkpt>
      <trkpt lat="47.53945" lon="-1.38391">
        <ele>46</ele>
        <time>2021-05-30T12:10:52Z</time>
      </trkpt>
      <trkpt lat="47.53925" lon="-1.38398">
        <ele>46.09</ele>
        <time>2021-05-30T12:10:36Z</time>
      </trkpt>
      <trkpt lat="47.53905" lon="-1.3841">
        <ele>47</ele>
        <time>2021-05-30T12:10:20Z</time>
      </trkpt>
      <trkpt lat="47.53882" lon="-1.38416">
        <ele>47.18</ele>
        <time>2021-05-30T12:10:04Z</time>
      </trkpt>
      <trkpt lat="47.5386" lon="-1.38421">
        <ele>49</ele>
        <time>2021-05-30T12:09:48Z</time>
      </trkpt>
      <trkpt lat="47.53842" lon="-1.3842">
        <ele>48.91</ele>
        <time>2021-05-30T12:09:36Z</time>
      </trkpt>
      <trkpt lat="47.53819" lon="-1.38419">
        <ele>48</ele>
        <time>2021-05-30T12:09:20Z</time>
      </trkpt>
      <trkpt lat="47.53798" lon="-1.38426">
        <ele>48</ele>
        <time>2021-05-30T12:09:04Z</time>
      </trkpt>
      <trkpt lat="47.53776" lon="-1.38434">
        <ele>48</ele>
        <time>2021-05-30T12:08:48Z</time>
      </trkpt>
      <trkpt lat="47.53753" lon="-1.38443">
        <ele>48.3</ele>
        <time>2021-05-30T12:08:32Z</time>
      </trkpt>
      <trkpt lat="47.53732" lon="-1.38452">
        <ele>49</ele>
        <time>2021-05-30T12:08:16Z</time>
      </trkpt>
      <trkpt lat="47.53713" lon="-1.38455">
        <ele>49</ele>
        <time>2021-05-30T12:08:00Z</time>
      </trkpt>
      <trkpt lat="47.53694" lon="-1.38459">
        <ele>49</ele>
        <time>2021-05-30T12:07:48Z</time>
      </trkpt>
      <trkpt lat="47.53671" lon="-1.38462">
        <ele>49</ele>
        <time>2021-05-30T12:07:32Z</time>
      </trkpt>
      <trkpt lat="47.53648" lon="-1.38468">
        <ele>49</ele>
        <time>2021-05-30T12:07:16Z</time>
      </trkpt>
      <trkpt lat="47.5363" lon="-1.38471">
        <ele>49</ele>
        <time>2021-05-30T12:07:04Z</time>
      </trkpt>
      <trkpt lat="47.53608" lon="-1.38485">
        <ele>49</ele>
        <time>2021-05-30T12:06:48Z</time>
      </trkpt>
      <trkpt lat="47.5359" lon="-1.38503">
        <ele>49.09</ele>
        <time>2021-05-30T12:06:32Z</time>
      </trkpt>
      <trkpt lat="47.53574" lon="-1.38516">
        <ele>50</ele>
        <time>2021-05-30T12:06:20Z</time>
      </trkpt>
      <trkpt lat="47.5356" lon="-1.38534">
        <ele>50</ele>
        <time>2021-05-30T12:06:08Z</time>
      </trkpt>
      <trkpt lat="47.53543" lon="-1.38548">
        <ele>50</ele>
        <time>2021-05-30T12:05:52Z</time>
      </trkpt>
      <trkpt lat="47.53524" lon="-1.38566">
        <ele>49.99</ele>
        <time>2021-05-30T12:05:36Z</time>
      </trkpt>
      <trkpt lat="47.53506" lon="-1.38571">
        <ele>49.7</ele>
        <time>2021-05-30T12:05:24Z</time>
      </trkpt>
      <trkpt lat="47.53482" lon="-1.38572">
        <ele>49</ele>
        <time>2021-05-30T12:05:12Z</time>
      </trkpt>
      <trkpt lat="47.5346" lon="-1.38563">
        <ele>49</ele>
        <time>2021-05-30T12:04:56Z</time>
      </trkpt>
      <trkpt lat="47.53438" lon="-1.38558">
        <ele>48.98</ele>
        <time>2021-05-30T12:04:40Z</time>
      </trkpt>
      <trkpt lat="47.53416" lon="-1.38565">
        <ele>47</ele>
        <time>2021-05-30T12:04:24Z</time>
      </trkpt>
      <trkpt lat="47.53394" lon="-1.38573">
        <ele>46.99</ele>
        <time>2021-05-30T12:04:08Z</time>
      </trkpt>
      <trkpt lat="47.53373" lon="-1.38585">
        <ele>46</ele>
        <time>2021-05-30T12:03:52Z</time>
      </trkpt>
      <trkpt lat="47.53353" lon="-1.38591">
        <ele>46</ele>
        <time>2021-05-30T12:03:36Z</time>
      </trkpt>
      <trkpt lat="47.53331" lon="-1.38599">
        <ele>45</ele>
        <time>2021-05-30T12:03:16Z</time>
      </trkpt>
      <trkpt lat="47.5331" lon="-1.38614">
        <ele>45</ele>
        <time>2021-05-30T12:03:00Z</time>
      </trkpt>
      <trkpt lat="47.5329" lon="-1.38624">
        <ele>45</ele>
        <time>2021-05-30T12:02:44Z</time>
      </trkpt>
      <trkpt lat="47.53271" lon="-1.38628">
        <ele>45.01</ele>
        <time>2021-05-30T12:02:28Z</time>
      </trkpt>
      <trkpt lat="47.53251" lon="-1.38628">
        <ele>45.3</ele>
        <time>2021-05-30T12:02:16Z</time>
      </trkpt>
      <trkpt lat="47.53233" lon="-1.38624">
        <ele>46</ele>
        <time>2021-05-30T12:01:56Z</time>
      </trkpt>
      <trkpt lat="47.53214" lon="-1.38615">
        <ele>46</ele>
        <time>2021-05-30T12:01:40Z</time>
      </trkpt>
      <trkpt lat="47.53196" lon="-1.38609">
        <ele>46</ele>
        <time>2021-05-30T12:01:28Z</time>
      </trkpt>
      <trkpt lat="47.53177" lon="-1.38603">
        <ele>46.09</ele>
        <time>2021-05-30T12:01:16Z</time>
      </trkpt>
      <trkpt lat="47.53155" lon="-1.38596">
        <ele>47</ele>
        <time>2021-05-30T12:01:00Z</time>
      </trkpt>
      <trkpt lat="47.53132" lon="-1.38589">
        <ele>47</ele>
        <time>2021-05-30T12:00:44Z</time>
      </trkpt>
      <trkpt lat="47.53112" lon="-1.3858">
        <ele>47</ele>
        <time>2021-05-30T12:00:28Z</time>
      </trkpt>
      <trkpt lat="47.53091" lon="-1.38573">
        <ele>47.27</ele>
        <time>2021-05-30T12:00:12Z</time>
      </trkpt>
      <trkpt lat="47.53069" lon="-1.38564">
        <ele>50</ele>
        <time>2021-05-30T11:59:56Z</time>
      </trkpt>
      <trkpt lat="47.5305" lon="-1.38557">
        <ele>50</ele>
        <time>2021-05-30T11:59:40Z</time>
      </trkpt>
      <trkpt lat="47.53028" lon="-1.3855">
        <ele>50</ele>
        <time>2021-05-30T11:59:20Z</time>
      </trkpt>
      <trkpt lat="47.53007" lon="-1.38542">
        <ele>50.54</ele>
        <time>2021-05-30T11:59:04Z</time>
      </trkpt>
      <trkpt lat="47.52992" lon="-1.38561">
        <ele>55.95</ele>
        <time>2021-05-30T11:58:40Z</time>
      </trkpt>
      <trkpt lat="47.52992" lon="-1.38592">
        <ele>54</ele>
        <time>2021-05-30T11:58:24Z</time>
      </trkpt>
      <trkpt lat="47.52976" lon="-1.38607">
        <ele>54</ele>
        <time>2021-05-30T11:58:12Z</time>
      </trkpt>
      <trkpt lat="47.52957" lon="-1.38613">
        <ele>54</ele>
        <time>2021-05-30T11:57:56Z</time>
      </trkpt>
      <trkpt lat="47.52938" lon="-1.3863">
        <ele>54</ele>
        <time>2021-05-30T11:57:40Z</time>
      </trkpt>
      <trkpt lat="47.52919" lon="-1.38641">
        <ele>54.6</ele>
        <time>2021-05-30T11:57:24Z</time>
      </trkpt>
      <trkpt lat="47.529" lon="-1.38655">
        <ele>55.89</ele>
        <time>2021-05-30T11:57:08Z</time>
      </trkpt>
      <trkpt lat="47.52885" lon="-1.38676">
        <ele>52</ele>
        <time>2021-05-30T11:56:52Z</time>
      </trkpt>
      <trkpt lat="47.52871" lon="-1.38694">
        <ele>52</ele>
        <time>2021-05-30T11:56:36Z</time>
      </trkpt>
      <trkpt lat="47.5286" lon="-1.38716">
        <ele>52</ele>
        <time>2021-05-30T11:56:24Z</time>
      </trkpt>
      <trkpt lat="47.52859" lon="-1.38748">
        <ele>51.7</ele>
        <time>2021-05-30T11:56:08Z</time>
      </trkpt>
      <trkpt lat="47.52871" lon="-1.38772">
        <ele>51</ele>
        <time>2021-05-30T11:55:52Z</time>
      </trkpt>
      <trkpt lat="47.52882" lon="-1.38798">
        <ele>51</ele>
        <time>2021-05-30T11:55:36Z</time>
      </trkpt>
      <trkpt lat="47.52895" lon="-1.38826">
        <ele>51.54</ele>
        <time>2021-05-30T11:55:20Z</time>
      </trkpt>
      <trkpt lat="47.52909" lon="-1.38854">
        <ele>56.84</ele>
        <time>2021-05-30T11:55:04Z</time>
      </trkpt>
      <trkpt lat="47.52921" lon="-1.3888">
        <ele>51.03</ele>
        <time>2021-05-30T11:54:48Z</time>
      </trkpt>
      <trkpt lat="47.52925" lon="-1.38906">
        <ele>52.2</ele>
        <time>2021-05-30T11:54:36Z</time>
      </trkpt>
      <trkpt lat="47.52931" lon="-1.38939">
        <ele>55</ele>
        <time>2021-05-30T11:54:20Z</time>
      </trkpt>
      <trkpt lat="47.52932" lon="-1.3897">
        <ele>55.01</ele>
        <time>2021-05-30T11:54:04Z</time>
      </trkpt>
      <trkpt lat="47.52935" lon="-1.38999">
        <ele>56.2</ele>
        <time>2021-05-30T11:53:48Z</time>
      </trkpt>
      <trkpt lat="47.52941" lon="-1.39032">
        <ele>59</ele>
        <time>2021-05-30T11:53:32Z</time>
      </trkpt>
      <trkpt lat="47.52946" lon="-1.39063">
        <ele>58.97</ele>
        <time>2021-05-30T11:53:16Z</time>
      </trkpt>
      <trkpt lat="47.52947" lon="-1.39095">
        <ele>58</ele>
        <time>2021-05-30T11:53:00Z</time>
      </trkpt>
      <trkpt lat="47.52948" lon="-1.39124">
        <ele>58</ele>
        <time>2021-05-30T11:52:44Z</time>
      </trkpt>
      <trkpt lat="47.52946" lon="-1.39151">
        <ele>58</ele>
        <time>2021-05-30T11:52:32Z</time>
      </trkpt>
      <trkpt lat="47.52949" lon="-1.39177">
        <ele>58</ele>
        <time>2021-05-30T11:52:20Z</time>
      </trkpt>
      <trkpt lat="47.52946" lon="-1.39208">
        <ele>58</ele>
        <time>2021-05-30T11:52:04Z</time>
      </trkpt>
      <trkpt lat="47.52942" lon="-1.39237">
        <ele>58.09</ele>
        <time>2021-05-30T11:51:48Z</time>
      </trkpt>
      <trkpt lat="47.52942" lon="-1.3927">
        <ele>59</ele>
        <time>2021-05-30T11:51:32Z</time>
      </trkpt>
      <trkpt lat="47.52942" lon="-1.39297">
        <ele>59</ele>
        <time>2021-05-30T11:51:16Z</time>
      </trkpt>
      <trkpt lat="47.52939" lon="-1.39327">
        <ele>58.4</ele>
        <time>2021-05-30T11:51:00Z</time>
      </trkpt>
      <trkpt lat="47.52932" lon="-1.39357">
        <ele>57</ele>
        <time>2021-05-30T11:50:44Z</time>
      </trkpt>
      <trkpt lat="47.52935" lon="-1.39387">
        <ele>57</ele>
        <time>2021-05-30T11:50:28Z</time>
      </trkpt>
      <trkpt lat="47.52954" lon="-1.39401">
        <ele>57.11</ele>
        <time>2021-05-30T11:50:12Z</time>
      </trkpt>
      <trkpt lat="47.52969" lon="-1.39428">
        <ele>61</ele>
        <time>2021-05-30T11:49:56Z</time>
      </trkpt>
      <trkpt lat="47.52986" lon="-1.3945">
        <ele>61</ele>
        <time>2021-05-30T11:49:40Z</time>
      </trkpt>
      <trkpt lat="47.53" lon="-1.39471">
        <ele>59.8</ele>
        <time>2021-05-30T11:49:20Z</time>
      </trkpt>
      <trkpt lat="47.53014" lon="-1.39489">
        <ele>57.08</ele>
        <time>2021-05-30T11:49:08Z</time>
      </trkpt>
      <trkpt lat="47.53027" lon="-1.39509">
        <ele>60</ele>
        <time>2021-05-30T11:48:52Z</time>
      </trkpt>
      <trkpt lat="47.5304" lon="-1.39535">
        <ele>60</ele>
        <time>2021-05-30T11:48:32Z</time>
      </trkpt>
      <trkpt lat="47.53057" lon="-1.39558">
        <ele>60.01</ele>
        <time>2021-05-30T11:48:16Z</time>
      </trkpt>
      <trkpt lat="47.53058" lon="-1.39587">
        <ele>63</ele>
        <time>2021-05-30T11:47:56Z</time>
      </trkpt>
      <trkpt lat="47.53041" lon="-1.39605">
        <ele>63</ele>
        <time>2021-05-30T11:47:40Z</time>
      </trkpt>
      <trkpt lat="47.53025" lon="-1.39624">
        <ele>63</ele>
        <time>2021-05-30T11:47:24Z</time>
      </trkpt>
      <trkpt lat="47.53008" lon="-1.39643">
        <ele>63.18</ele>
        <time>2021-05-30T11:47:12Z</time>
      </trkpt>
      <trkpt lat="47.52992" lon="-1.39658">
        <ele>65</ele>
        <time>2021-05-30T11:46:56Z</time>
      </trkpt>
      <trkpt lat="47.52979" lon="-1.39687">
        <ele>65</ele>
        <time>2021-05-30T11:46:40Z</time>
      </trkpt>
      <trkpt lat="47.52968" lon="-1.3971">
        <ele>65</ele>
        <time>2021-05-30T11:46:24Z</time>
      </trkpt>
      <trkpt lat="47.52958" lon="-1.39738">
        <ele>64.82</ele>
        <time>2021-05-30T11:46:04Z</time>
      </trkpt>
      <trkpt lat="47.52953" lon="-1.39765">
        <ele>63</ele>
        <time>2021-05-30T11:45:51Z</time>
      </trkpt>
      <trkpt lat="47.52945" lon="-1.39796">
        <ele>63</ele>
        <time>2021-05-30T11:45:34Z</time>
      </trkpt>
      <trkpt lat="47.52932" lon="-1.39823">
        <ele>62.82</ele>
        <time>2021-05-30T11:45:18Z</time>
      </trkpt>
      <trkpt lat="47.52924" lon="-1.39854">
        <ele>61</ele>
        <time>2021-05-30T11:45:02Z</time>
      </trkpt>
      <trkpt lat="47.52924" lon="-1.39886">
        <ele>61</ele>
        <time>2021-05-30T11:44:46Z</time>
      </trkpt>
      <trkpt lat="47.52927" lon="-1.39914">
        <ele>60.7</ele>
        <time>2021-05-30T11:44:30Z</time>
      </trkpt>
      <trkpt lat="47.52931" lon="-1.39947">
        <ele>60</ele>
        <time>2021-05-30T11:44:14Z</time>
      </trkpt>
      <trkpt lat="47.52941" lon="-1.39975">
        <ele>60.02</ele>
        <time>2021-05-30T11:43:58Z</time>
      </trkpt>
      <trkpt lat="47.52953" lon="-1.4">
        <ele>62</ele>
        <time>2021-05-30T11:43:42Z</time>
      </trkpt>
      <trkpt lat="47.52937" lon="-1.40017">
        <ele>61.98</ele>
        <time>2021-05-30T11:43:26Z</time>
      </trkpt>
      <trkpt lat="47.5292" lon="-1.40034">
        <ele>59.3</ele>
        <time>2021-05-30T11:43:10Z</time>
      </trkpt>
      <trkpt lat="47.52905" lon="-1.40055">
        <ele>53.02</ele>
        <time>2021-05-30T11:42:54Z</time>
      </trkpt>
      <trkpt lat="47.52895" lon="-1.40086">
        <ele>55</ele>
        <time>2021-05-30T11:42:38Z</time>
      </trkpt>
      <trkpt lat="47.52895" lon="-1.40119">
        <ele>55</ele>
        <time>2021-05-30T11:42:22Z</time>
      </trkpt>
      <trkpt lat="47.52893" lon="-1.40151">
        <ele>55.05</ele>
        <time>2021-05-30T11:42:06Z</time>
      </trkpt>
      <trkpt lat="47.52887" lon="-1.4018">
        <ele>57</ele>
        <time>2021-05-30T11:41:50Z</time>
      </trkpt>
      <trkpt lat="47.52878" lon="-1.40206">
        <ele>57</ele>
        <time>2021-05-30T11:41:34Z</time>
      </trkpt>
      <trkpt lat="47.52868" lon="-1.40235">
        <ele>57</ele>
        <time>2021-05-30T11:41:18Z</time>
      </trkpt>
      <trkpt lat="47.52859" lon="-1.40265">
        <ele>57</ele>
        <time>2021-05-30T11:41:02Z</time>
      </trkpt>
      <trkpt lat="47.52857" lon="-1.403">
        <ele>57</ele>
        <time>2021-05-30T11:40:46Z</time>
      </trkpt>
      <trkpt lat="47.52863" lon="-1.4033">
        <ele>57.3</ele>
        <time>2021-05-30T11:40:30Z</time>
      </trkpt>
      <trkpt lat="47.52867" lon="-1.40361">
        <ele>58</ele>
        <time>2021-05-30T11:40:14Z</time>
      </trkpt>
      <trkpt lat="47.52867" lon="-1.4039">
        <ele>58</ele>
        <time>2021-05-30T11:39:58Z</time>
      </trkpt>
      <trkpt lat="47.52864" lon="-1.40421">
        <ele>58</ele>
        <time>2021-05-30T11:39:42Z</time>
      </trkpt>
      <trkpt lat="47.52859" lon="-1.40452">
        <ele>58</ele>
        <time>2021-05-30T11:39:26Z</time>
      </trkpt>
      <trkpt lat="47.52866" lon="-1.40484">
        <ele>58.03</ele>
        <time>2021-05-30T11:39:10Z</time>
      </trkpt>
      <trkpt lat="47.5287" lon="-1.40515">
        <ele>59</ele>
        <time>2021-05-30T11:38:54Z</time>
      </trkpt>
      <trkpt lat="47.52869" lon="-1.40544">
        <ele>59</ele>
        <time>2021-05-30T11:38:38Z</time>
      </trkpt>
      <trkpt lat="47.52872" lon="-1.40578">
        <ele>58.7</ele>
        <time>2021-05-30T11:38:22Z</time>
      </trkpt>
      <trkpt lat="47.5287" lon="-1.40605">
        <ele>58</ele>
        <time>2021-05-30T11:38:06Z</time>
      </trkpt>
      <trkpt lat="47.5287" lon="-1.40638">
        <ele>58.02</ele>
        <time>2021-05-30T11:37:46Z</time>
      </trkpt>
      <trkpt lat="47.52866" lon="-1.40669">
        <ele>60</ele>
        <time>2021-05-30T11:37:30Z</time>
      </trkpt>
      <trkpt lat="47.5286" lon="-1.40703">
        <ele>60</ele>
        <time>2021-05-30T11:37:14Z</time>
      </trkpt>
      <trkpt lat="47.52857" lon="-1.40734">
        <ele>60</ele>
        <time>2021-05-30T11:36:58Z</time>
      </trkpt>
      <trkpt lat="47.52853" lon="-1.40763">
        <ele>60</ele>
        <time>2021-05-30T11:36:42Z</time>
      </trkpt>
      <trkpt lat="47.52851" lon="-1.40797">
        <ele>60</ele>
        <time>2021-05-30T11:36:26Z</time>
      </trkpt>
      <trkpt lat="47.52854" lon="-1.40828">
        <ele>60.6</ele>
        <time>2021-05-30T11:36:10Z</time>
      </trkpt>
      <trkpt lat="47.5286" lon="-1.4086">
        <ele>62</ele>
        <time>2021-05-30T11:35:54Z</time>
      </trkpt>
      <trkpt lat="47.52875" lon="-1.40885">
        <ele>62</ele>
        <time>2021-05-30T11:35:38Z</time>
      </trkpt>
      <trkpt lat="47.52872" lon="-1.40914">
        <ele>61.7</ele>
        <time>2021-05-30T11:35:22Z</time>
      </trkpt>
      <trkpt lat="47.52879" lon="-1.40939">
        <ele>61</ele>
        <time>2021-05-30T11:35:06Z</time>
      </trkpt>
      <trkpt lat="47.52886" lon="-1.40965">
        <ele>61</ele>
        <time>2021-05-30T11:34:54Z</time>
      </trkpt>
      <trkpt lat="47.52893" lon="-1.40992">
        <ele>60.82</ele>
        <time>2021-05-30T11:34:38Z</time>
      </trkpt>
      <trkpt lat="47.52902" lon="-1.41017">
        <ele>59</ele>
        <time>2021-05-30T11:34:22Z</time>
      </trkpt>
      <trkpt lat="47.52912" lon="-1.41044">
        <ele>59.01</ele>
        <time>2021-05-30T11:34:06Z</time>
      </trkpt>
      <trkpt lat="47.52917" lon="-1.41073">
        <ele>59.63</ele>
        <time>2021-05-30T11:33:50Z</time>
      </trkpt>
      <trkpt lat="47.52921" lon="-1.41105">
        <ele>66</ele>
        <time>2021-05-30T11:33:06Z</time>
      </trkpt>
      <trkpt lat="47.52923" lon="-1.41133">
        <ele>66</ele>
        <time>2021-05-30T11:32:10Z</time>
      </trkpt>
      <trkpt lat="47.52934" lon="-1.41154">
        <ele>65.91</ele>
        <time>2021-05-30T11:31:54Z</time>
      </trkpt>
      <trkpt lat="47.52943" lon="-1.41182">
        <ele>65</ele>
        <time>2021-05-30T11:31:38Z</time>
      </trkpt>
      <trkpt lat="47.52952" lon="-1.41212">
        <ele>65</ele>
        <time>2021-05-30T11:31:22Z</time>
      </trkpt>
      <trkpt lat="47.52965" lon="-1.41234">
        <ele>64.95</ele>
        <time>2021-05-30T11:31:06Z</time>
      </trkpt>
      <trkpt lat="47.52976" lon="-1.41258">
        <ele>63</ele>
        <time>2021-05-30T11:30:50Z</time>
      </trkpt>
      <trkpt lat="47.52987" lon="-1.41282">
        <ele>63.05</ele>
        <time>2021-05-30T11:30:34Z</time>
      </trkpt>
      <trkpt lat="47.53002" lon="-1.41306">
        <ele>68.98</ele>
        <time>2021-05-30T11:30:18Z</time>
      </trkpt>
      <trkpt lat="47.53007" lon="-1.41337">
        <ele>66</ele>
        <time>2021-05-30T11:30:02Z</time>
      </trkpt>
      <trkpt lat="47.53015" lon="-1.41368">
        <ele>66</ele>
        <time>2021-05-30T11:29:46Z</time>
      </trkpt>
      <trkpt lat="47.53022" lon="-1.414">
        <ele>65.81</ele>
        <time>2021-05-30T11:29:26Z</time>
      </trkpt>
      <trkpt lat="47.53042" lon="-1.41422">
        <ele>59</ele>
        <time>2021-05-30T11:29:10Z</time>
      </trkpt>
      <trkpt lat="47.5305" lon="-1.41451">
        <ele>59</ele>
        <time>2021-05-30T11:28:54Z</time>
      </trkpt>
      <trkpt lat="47.53059" lon="-1.41479">
        <ele>58.99</ele>
        <time>2021-05-30T11:28:38Z</time>
      </trkpt>
      <trkpt lat="47.53062" lon="-1.41508">
        <ele>54</ele>
        <time>2021-05-30T11:28:14Z</time>
      </trkpt>
      <trkpt lat="47.53042" lon="-1.41516">
        <ele>54</ele>
        <time>2021-05-30T11:27:58Z</time>
      </trkpt>
      <trkpt lat="47.53023" lon="-1.41527">
        <ele>53.99</ele>
        <time>2021-05-30T11:27:42Z</time>
      </trkpt>
      <trkpt lat="47.53002" lon="-1.41535">
        <ele>52.5</ele>
        <time>2021-05-30T11:27:26Z</time>
      </trkpt>
      <trkpt lat="47.52981" lon="-1.41543">
        <ele>49</ele>
        <time>2021-05-30T11:27:06Z</time>
      </trkpt>
      <trkpt lat="47.52956" lon="-1.41546">
        <ele>49</ele>
        <time>2021-05-30T11:26:50Z</time>
      </trkpt>
      <trkpt lat="47.52938" lon="-1.41558">
        <ele>49</ele>
        <time>2021-05-30T11:26:30Z</time>
      </trkpt>
      <trkpt lat="47.52918" lon="-1.41562">
        <ele>48.7</ele>
        <time>2021-05-30T11:26:14Z</time>
      </trkpt>
      <trkpt lat="47.52897" lon="-1.41568">
        <ele>46.8</ele>
        <time>2021-05-30T11:25:43Z</time>
      </trkpt>
      <trkpt lat="47.52842" lon="-1.41595">
        <ele>43.91</ele>
        <time>2021-05-30T11:25:14Z</time>
      </trkpt>
      <trkpt lat="47.52824" lon="-1.41604">
        <ele>43</ele>
        <time>2021-05-30T11:24:58Z</time>
      </trkpt>
      <trkpt lat="47.52802" lon="-1.41609">
        <ele>43</ele>
        <time>2021-05-30T11:24:42Z</time>
      </trkpt>
      <trkpt lat="47.52783" lon="-1.41616">
        <ele>43</ele>
        <time>2021-05-30T11:24:30Z</time>
      </trkpt>
      <trkpt lat="47.52764" lon="-1.41631">
        <ele>42.97</ele>
        <time>2021-05-30T11:24:10Z</time>
      </trkpt>
      <trkpt lat="47.52744" lon="-1.41641">
        <ele>39</ele>
        <time>2021-05-30T11:23:50Z</time>
      </trkpt>
      <trkpt lat="47.52724" lon="-1.41644">
        <ele>39</ele>
        <time>2021-05-30T11:23:34Z</time>
      </trkpt>
      <trkpt lat="47.52705" lon="-1.41651">
        <ele>39</ele>
        <time>2021-05-30T11:23:18Z</time>
      </trkpt>
      <trkpt lat="47.52686" lon="-1.41644">
        <ele>39</ele>
        <time>2021-05-30T11:22:54Z</time>
      </trkpt>
      <trkpt lat="47.52675" lon="-1.41614">
        <ele>39.01</ele>
        <time>2021-05-30T11:22:38Z</time>
      </trkpt>
      <trkpt lat="47.52672" lon="-1.41588">
        <ele>39.9</ele>
        <time>2021-05-30T11:22:22Z</time>
      </trkpt>
      <trkpt lat="47.52676" lon="-1.41559">
        <ele>42</ele>
        <time>2021-05-30T11:22:06Z</time>
      </trkpt>
      <trkpt lat="47.52678" lon="-1.41527">
        <ele>42.02</ele>
        <time>2021-05-30T11:21:50Z</time>
      </trkpt>
      <trkpt lat="47.52676" lon="-1.41497">
        <ele>44</ele>
        <time>2021-05-30T11:21:34Z</time>
      </trkpt>
      <trkpt lat="47.52676" lon="-1.41468">
        <ele>44</ele>
        <time>2021-05-30T11:21:18Z</time>
      </trkpt>
      <trkpt lat="47.5268" lon="-1.41439">
        <ele>44.03</ele>
        <time>2021-05-30T11:21:02Z</time>
      </trkpt>
      <trkpt lat="47.52683" lon="-1.41409">
        <ele>45</ele>
        <time>2021-05-30T11:20:46Z</time>
      </trkpt>
      <trkpt lat="47.52692" lon="-1.41385">
        <ele>45</ele>
        <time>2021-05-30T11:20:34Z</time>
      </trkpt>
      <trkpt lat="47.52698" lon="-1.41352">
        <ele>45.05</ele>
        <time>2021-05-30T11:20:18Z</time>
      </trkpt>
      <trkpt lat="47.52696" lon="-1.41318">
        <ele>47</ele>
        <time>2021-05-30T11:19:58Z</time>
      </trkpt>
      <trkpt lat="47.52693" lon="-1.41286">
        <ele>47</ele>
        <time>2021-05-30T11:19:42Z</time>
      </trkpt>
      <trkpt lat="47.52685" lon="-1.4126">
        <ele>47.09</ele>
        <time>2021-05-30T11:19:26Z</time>
      </trkpt>
      <trkpt lat="47.5269" lon="-1.41231">
        <ele>48</ele>
        <time>2021-05-30T11:19:10Z</time>
      </trkpt>
      <trkpt lat="47.52686" lon="-1.41204">
        <ele>48</ele>
        <time>2021-05-30T11:18:54Z</time>
      </trkpt>
      <trkpt lat="47.52681" lon="-1.41177">
        <ele>47.55</ele>
        <time>2021-05-30T11:18:38Z</time>
      </trkpt>
      <trkpt lat="47.52676" lon="-1.41146">
        <ele>42.81</ele>
        <time>2021-05-30T11:18:18Z</time>
      </trkpt>
      <trkpt lat="47.52664" lon="-1.41122">
        <ele>36</ele>
        <time>2021-05-30T11:18:02Z</time>
      </trkpt>
      <trkpt lat="47.5265" lon="-1.41097">
        <ele>35.98</ele>
        <time>2021-05-30T11:17:46Z</time>
      </trkpt>
      <trkpt lat="47.52639" lon="-1.41075">
        <ele>34</ele>
        <time>2021-05-30T11:17:26Z</time>
      </trkpt>
      <trkpt lat="47.52633" lon="-1.41046">
        <ele>34</ele>
        <time>2021-05-30T11:17:10Z</time>
      </trkpt>
      <trkpt lat="47.52628" lon="-1.41018">
        <ele>34.05</ele>
        <time>2021-05-30T11:16:54Z</time>
      </trkpt>
      <trkpt lat="47.52622" lon="-1.4099">
        <ele>36</ele>
        <time>2021-05-30T11:16:38Z</time>
      </trkpt>
      <trkpt lat="47.52609" lon="-1.40963">
        <ele>36</ele>
        <time>2021-05-30T11:16:22Z</time>
      </trkpt>
      <trkpt lat="47.52609" lon="-1.40933">
        <ele>36.05</ele>
        <time>2021-05-30T11:16:02Z</time>
      </trkpt>
      <trkpt lat="47.52611" lon="-1.40905">
        <ele>38</ele>
        <time>2021-05-30T11:15:46Z</time>
      </trkpt>
      <trkpt lat="47.52611" lon="-1.40876">
        <ele>38</ele>
        <time>2021-05-30T11:15:30Z</time>
      </trkpt>
      <trkpt lat="47.52616" lon="-1.40844">
        <ele>38</ele>
        <time>2021-05-30T11:15:14Z</time>
      </trkpt>
      <trkpt lat="47.52617" lon="-1.40813">
        <ele>38</ele>
        <time>2021-05-30T11:14:58Z</time>
      </trkpt>
      <trkpt lat="47.52614" lon="-1.40786">
        <ele>37.99</ele>
        <time>2021-05-30T11:14:42Z</time>
      </trkpt>
      <trkpt lat="47.52626" lon="-1.40763">
        <ele>37.73</ele>
        <time>2021-05-30T11:14:30Z</time>
      </trkpt>
      <trkpt lat="47.52632" lon="-1.40729">
        <ele>35</ele>
        <time>2021-05-30T11:14:10Z</time>
      </trkpt>
      <trkpt lat="47.52625" lon="-1.407">
        <ele>35</ele>
        <time>2021-05-30T11:13:54Z</time>
      </trkpt>
      <trkpt lat="47.52609" lon="-1.40681">
        <ele>35.01</ele>
        <time>2021-05-30T11:13:34Z</time>
      </trkpt>
      <trkpt lat="47.52593" lon="-1.40667">
        <ele>36.16</ele>
        <time>2021-05-30T11:13:18Z</time>
      </trkpt>
      <trkpt lat="47.52578" lon="-1.40648">
        <ele>34</ele>
        <time>2021-05-30T11:12:54Z</time>
      </trkpt>
      <trkpt lat="47.52565" lon="-1.40637">
        <ele>34</ele>
        <time>2021-05-30T10:31:20Z</time>
      </trkpt>
      <trkpt lat="47.52562" lon="-1.40611">
        <ele>34</ele>
        <time>2021-05-30T10:30:44Z</time>
      </trkpt>
      <trkpt lat="47.52572" lon="-1.40587">
        <ele>34.3</ele>
        <time>2021-05-30T10:30:28Z</time>
      </trkpt>
      <trkpt lat="47.52579" lon="-1.40562">
        <ele>35</ele>
        <time>2021-05-30T10:30:12Z</time>
      </trkpt>
      <trkpt lat="47.52564" lon="-1.40541">
        <ele>35</ele>
        <time>2021-05-30T10:29:56Z</time>
      </trkpt>
      <trkpt lat="47.52544" lon="-1.40536">
        <ele>35</ele>
        <time>2021-05-30T10:29:40Z</time>
      </trkpt>
      <trkpt lat="47.52524" lon="-1.40525">
        <ele>35</ele>
        <time>2021-05-30T10:29:20Z</time>
      </trkpt>
      <trkpt lat="47.52516" lon="-1.40495">
        <ele>35</ele>
        <time>2021-05-30T10:29:04Z</time>
      </trkpt>
      <trkpt lat="47.52505" lon="-1.40464">
        <ele>34.91</ele>
        <time>2021-05-30T10:28:48Z</time>
      </trkpt>
      <trkpt lat="47.52497" lon="-1.40439">
        <ele>34.05</ele>
        <time>2021-05-30T10:28:32Z</time>
      </trkpt>
      <trkpt lat="47.52495" lon="-1.40408">
        <ele>36</ele>
        <time>2021-05-30T10:28:16Z</time>
      </trkpt>
      <trkpt lat="47.52491" lon="-1.40379">
        <ele>36</ele>
        <time>2021-05-30T10:28:00Z</time>
      </trkpt>
      <trkpt lat="47.52484" lon="-1.40346">
        <ele>36</ele>
        <time>2021-05-30T10:27:44Z</time>
      </trkpt>
      <trkpt lat="47.52484" lon="-1.40315">
        <ele>36.01</ele>
        <time>2021-05-30T10:27:24Z</time>
      </trkpt>
      <trkpt lat="47.52498" lon="-1.40294">
        <ele>37.5</ele>
        <time>2021-05-30T10:27:08Z</time>
      </trkpt>
      <trkpt lat="47.52513" lon="-1.40276">
        <ele>40.86</ele>
        <time>2021-05-30T10:26:48Z</time>
      </trkpt>
      <trkpt lat="47.52495" lon="-1.40268">
        <ele>35.99</ele>
        <time>2021-05-30T10:26:32Z</time>
      </trkpt>
      <trkpt lat="47.52481" lon="-1.4025">
        <ele>34.8</ele>
        <time>2021-05-30T10:26:16Z</time>
      </trkpt>
      <trkpt lat="47.52473" lon="-1.40223">
        <ele>32</ele>
        <time>2021-05-30T10:26:04Z</time>
      </trkpt>
      <trkpt lat="47.5247" lon="-1.40192">
        <ele>32.01</ele>
        <time>2021-05-30T10:25:48Z</time>
      </trkpt>
      <trkpt lat="47.52467" lon="-1.40159">
        <ele>33</ele>
        <time>2021-05-30T10:25:28Z</time>
      </trkpt>
      <trkpt lat="47.52463" lon="-1.40127">
        <ele>33</ele>
        <time>2021-05-30T10:25:12Z</time>
      </trkpt>
      <trkpt lat="47.52465" lon="-1.40098">
        <ele>33.09</ele>
        <time>2021-05-30T10:24:56Z</time>
      </trkpt>
      <trkpt lat="47.52462" lon="-1.40063">
        <ele>34</ele>
        <time>2021-05-30T10:24:36Z</time>
      </trkpt>
      <trkpt lat="47.52482" lon="-1.4005">
        <ele>34</ele>
        <time>2021-05-30T10:24:28Z</time>
      </trkpt>
      <trkpt lat="47.52445" lon="-1.40035">
        <ele>34</ele>
        <time>2021-05-30T10:24:20Z</time>
      </trkpt>
      <trkpt lat="47.52434" lon="-1.40007">
        <ele>34.18</ele>
        <time>2021-05-30T10:24:04Z</time>
      </trkpt>
      <trkpt lat="47.52419" lon="-1.39985">
        <ele>35.1</ele>
        <time>2021-05-30T10:23:40Z</time>
      </trkpt>
      <trkpt lat="47.5239" lon="-1.39972">
        <ele>33</ele>
        <time>2021-05-30T10:23:28Z</time>
      </trkpt>
      <trkpt lat="47.52371" lon="-1.3996">
        <ele>33</ele>
        <time>2021-05-30T10:23:12Z</time>
      </trkpt>
      <trkpt lat="47.52357" lon="-1.3994">
        <ele>33.03</ele>
        <time>2021-05-30T10:22:56Z</time>
      </trkpt>
      <trkpt lat="47.52349" lon="-1.39916">
        <ele>34</ele>
        <time>2021-05-30T10:22:44Z</time>
      </trkpt>
      <trkpt lat="47.52344" lon="-1.39887">
        <ele>34</ele>
        <time>2021-05-30T10:22:28Z</time>
      </trkpt>
      <trkpt lat="47.52349" lon="-1.39859">
        <ele>34.03</ele>
        <time>2021-05-30T10:22:15Z</time>
      </trkpt>
      <trkpt lat="47.52351" lon="-1.39826">
        <ele>35</ele>
        <time>2021-05-30T10:21:59Z</time>
      </trkpt>
      <trkpt lat="47.52354" lon="-1.39798">
        <ele>35</ele>
        <time>2021-05-30T10:21:42Z</time>
      </trkpt>
      <trkpt lat="47.52354" lon="-1.39766">
        <ele>35.05</ele>
        <time>2021-05-30T10:21:26Z</time>
      </trkpt>
      <trkpt lat="47.52357" lon="-1.39735">
        <ele>37</ele>
        <time>2021-05-30T10:21:10Z</time>
      </trkpt>
      <trkpt lat="47.52359" lon="-1.39705">
        <ele>37</ele>
        <time>2021-05-30T10:20:54Z</time>
      </trkpt>
      <trkpt lat="47.52362" lon="-1.39673">
        <ele>37.3</ele>
        <time>2021-05-30T10:20:34Z</time>
      </trkpt>
      <trkpt lat="47.52375" lon="-1.39647">
        <ele>38</ele>
        <time>2021-05-30T10:20:18Z</time>
      </trkpt>
      <trkpt lat="47.5236" lon="-1.39608">
        <ele>38</ele>
        <time>2021-05-30T10:19:55Z</time>
      </trkpt>
      <trkpt lat="47.5234" lon="-1.39605">
        <ele>37.64</ele>
        <time>2021-05-30T10:19:39Z</time>
      </trkpt>
      <trkpt lat="47.52318" lon="-1.39599">
        <ele>34</ele>
        <time>2021-05-30T10:19:23Z</time>
      </trkpt>
      <trkpt lat="47.52297" lon="-1.39597">
        <ele>34</ele>
        <time>2021-05-30T10:19:07Z</time>
      </trkpt>
      <trkpt lat="47.52276" lon="-1.39602">
        <ele>34</ele>
        <time>2021-05-30T10:18:51Z</time>
      </trkpt>
      <trkpt lat="47.52255" lon="-1.39608">
        <ele>34</ele>
        <time>2021-05-30T10:18:35Z</time>
      </trkpt>
      <trkpt lat="47.52238" lon="-1.39597">
        <ele>34</ele>
        <time>2021-05-30T10:18:07Z</time>
      </trkpt>
      <trkpt lat="47.52218" lon="-1.3959">
        <ele>34</ele>
        <time>2021-05-30T10:17:47Z</time>
      </trkpt>
      <trkpt lat="47.52209" lon="-1.39554">
        <ele>34</ele>
        <time>2021-05-30T10:17:29Z</time>
      </trkpt>
      <trkpt lat="47.52204" lon="-1.39527">
        <ele>33.91</ele>
        <time>2021-05-30T10:17:13Z</time>
      </trkpt>
      <trkpt lat="47.52208" lon="-1.39483">
        <ele>33.01</ele>
        <time>2021-05-30T10:16:52Z</time>
      </trkpt>
      <trkpt lat="47.52207" lon="-1.39454">
        <ele>33.21</ele>
        <time>2021-05-30T10:16:40Z</time>
      </trkpt>
      <trkpt lat="47.52241" lon="-1.39452">
        <ele>32.91</ele>
        <time>2021-05-30T10:16:26Z</time>
      </trkpt>
      <trkpt lat="47.52262" lon="-1.39436">
        <ele>32</ele>
        <time>2021-05-30T10:16:08Z</time>
      </trkpt>
      <trkpt lat="47.52278" lon="-1.39416">
        <ele>32</ele>
        <time>2021-05-30T10:15:52Z</time>
      </trkpt>
      <trkpt lat="47.52293" lon="-1.39433">
        <ele>32</ele>
        <time>2021-05-30T10:15:48Z</time>
      </trkpt>
      <trkpt lat="47.52297" lon="-1.39394">
        <ele>32</ele>
        <time>2021-05-30T10:15:38Z</time>
      </trkpt>
      <trkpt lat="47.52308" lon="-1.39368">
        <ele>32</ele>
        <time>2021-05-30T10:15:22Z</time>
      </trkpt>
      <trkpt lat="47.5232" lon="-1.39336">
        <ele>32.3</ele>
        <time>2021-05-30T10:14:42Z</time>
      </trkpt>
      <trkpt lat="47.52336" lon="-1.39315">
        <ele>34</ele>
        <time>2021-05-30T10:14:18Z</time>
      </trkpt>
      <trkpt lat="47.52351" lon="-1.39299">
        <ele>34</ele>
        <time>2021-05-30T10:14:02Z</time>
      </trkpt>
      <trkpt lat="47.52367" lon="-1.39285">
        <ele>34</ele>
        <time>2021-05-30T10:13:50Z</time>
      </trkpt>
      <trkpt lat="47.52383" lon="-1.39276">
        <ele>34</ele>
        <time>2021-05-30T10:13:34Z</time>
      </trkpt>
      <trkpt lat="47.52402" lon="-1.39258">
        <ele>34.02</ele>
        <time>2021-05-30T10:13:18Z</time>
      </trkpt>
      <trkpt lat="47.52421" lon="-1.39244">
        <ele>37</ele>
        <time>2021-05-30T10:13:02Z</time>
      </trkpt>
      <trkpt lat="47.52435" lon="-1.39224">
        <ele>37</ele>
        <time>2021-05-30T10:12:50Z</time>
      </trkpt>
      <trkpt lat="47.52453" lon="-1.39205">
        <ele>37</ele>
        <time>2021-05-30T10:12:34Z</time>
      </trkpt>
      <trkpt lat="47.52467" lon="-1.39183">
        <ele>37.08</ele>
        <time>2021-05-30T10:12:18Z</time>
      </trkpt>
      <trkpt lat="47.52473" lon="-1.39155">
        <ele>40</ele>
        <time>2021-05-30T10:12:02Z</time>
      </trkpt>
      <trkpt lat="47.52479" lon="-1.39119">
        <ele>40</ele>
        <time>2021-05-30T10:11:42Z</time>
      </trkpt>
      <trkpt lat="47.52482" lon="-1.39085">
        <ele>39.4</ele>
        <time>2021-05-30T10:11:26Z</time>
      </trkpt>
      <trkpt lat="47.5249" lon="-1.39049">
        <ele>38</ele>
        <time>2021-05-30T10:11:06Z</time>
      </trkpt>
      <trkpt lat="47.52495" lon="-1.39022">
        <ele>38</ele>
        <time>2021-05-30T10:10:50Z</time>
      </trkpt>
      <trkpt lat="47.525" lon="-1.3899">
        <ele>40</ele>
        <time>2021-05-30T10:10:34Z</time>
      </trkpt>
      <trkpt lat="47.52505" lon="-1.3896">
        <ele>47</ele>
        <time>2021-05-30T10:10:14Z</time>
      </trkpt>
      <trkpt lat="47.52512" lon="-1.38932">
        <ele>47</ele>
        <time>2021-05-30T10:10:02Z</time>
      </trkpt>
      <trkpt lat="47.52518" lon="-1.38901">
        <ele>47</ele>
        <time>2021-05-30T10:09:46Z</time>
      </trkpt>
      <trkpt lat="47.52532" lon="-1.3888">
        <ele>47.02</ele>
        <time>2021-05-30T10:09:20Z</time>
      </trkpt>
      <trkpt lat="47.52523" lon="-1.38844">
        <ele>47.18</ele>
        <time>2021-05-30T10:09:12Z</time>
      </trkpt>
      <trkpt lat="47.52529" lon="-1.38811">
        <ele>49</ele>
        <time>2021-05-30T10:08:56Z</time>
      </trkpt>
      <trkpt lat="47.52535" lon="-1.38785">
        <ele>48.99</ele>
        <time>2021-05-30T10:08:40Z</time>
      </trkpt>
      <trkpt lat="47.52544" lon="-1.38755">
        <ele>47.8</ele>
        <time>2021-05-30T10:08:24Z</time>
      </trkpt>
      <trkpt lat="47.52559" lon="-1.38734">
        <ele>45.02</ele>
        <time>2021-05-30T10:08:08Z</time>
      </trkpt>
      <trkpt lat="47.52574" lon="-1.38718">
        <ele>45.72</ele>
        <time>2021-05-30T10:07:56Z</time>
      </trkpt>
      <trkpt lat="47.52587" lon="-1.38697">
        <ele>52.99</ele>
        <time>2021-05-30T10:07:44Z</time>
      </trkpt>
      <trkpt lat="47.52592" lon="-1.38669">
        <ele>51.8</ele>
        <time>2021-05-30T10:07:28Z</time>
      </trkpt>
      <trkpt lat="47.5259" lon="-1.38636">
        <ele>48.78</ele>
        <time>2021-05-30T10:07:12Z</time>
      </trkpt>
      <trkpt lat="47.52582" lon="-1.38611">
        <ele>41</ele>
        <time>2021-05-30T10:07:00Z</time>
      </trkpt>
      <trkpt lat="47.52566" lon="-1.38595">
        <ele>41</ele>
        <time>2021-05-30T10:06:48Z</time>
      </trkpt>
      <trkpt lat="47.52546" lon="-1.38596">
        <ele>41</ele>
        <time>2021-05-30T10:06:32Z</time>
      </trkpt>
      <trkpt lat="47.52527" lon="-1.3859">
        <ele>40.99</ele>
        <time>2021-05-30T10:06:16Z</time>
      </trkpt>
      <trkpt lat="47.52508" lon="-1.38583">
        <ele>39.92</ele>
        <time>2021-05-30T10:06:00Z</time>
      </trkpt>
      <trkpt lat="47.5249" lon="-1.38568">
        <ele>37</ele>
        <time>2021-05-30T10:05:44Z</time>
      </trkpt>
      <trkpt lat="47.52472" lon="-1.38552">
        <ele>37</ele>
        <time>2021-05-30T10:05:28Z</time>
      </trkpt>
      <trkpt lat="47.52461" lon="-1.3853">
        <ele>37</ele>
        <time>2021-05-30T10:05:12Z</time>
      </trkpt>
      <trkpt lat="47.52449" lon="-1.38503">
        <ele>37</ele>
        <time>2021-05-30T10:04:56Z</time>
      </trkpt>
      <trkpt lat="47.52442" lon="-1.38478">
        <ele>37</ele>
        <time>2021-05-30T10:04:40Z</time>
      </trkpt>
      <trkpt lat="47.52438" lon="-1.38445">
        <ele>36.99</ele>
        <time>2021-05-30T10:04:24Z</time>
      </trkpt>
      <trkpt lat="47.52437" lon="-1.38415">
        <ele>36</ele>
        <time>2021-05-30T10:04:08Z</time>
      </trkpt>
      <trkpt lat="47.52436" lon="-1.38383">
        <ele>36</ele>
        <time>2021-05-30T10:03:52Z</time>
      </trkpt>
      <trkpt lat="47.52434" lon="-1.38352">
        <ele>36.05</ele>
        <time>2021-05-30T10:03:36Z</time>
      </trkpt>
      <trkpt lat="47.52434" lon="-1.3832">
        <ele>38</ele>
        <time>2021-05-30T10:03:20Z</time>
      </trkpt>
      <trkpt lat="47.52432" lon="-1.38284">
        <ele>38</ele>
        <time>2021-05-30T10:03:04Z</time>
      </trkpt>
      <trkpt lat="47.5243" lon="-1.38251">
        <ele>38</ele>
        <time>2021-05-30T10:02:44Z</time>
      </trkpt>
      <trkpt lat="47.52427" lon="-1.38224">
        <ele>38</ele>
        <time>2021-05-30T10:02:28Z</time>
      </trkpt>
      <trkpt lat="47.52428" lon="-1.38196">
        <ele>38.01</ele>
        <time>2021-05-30T10:02:12Z</time>
      </trkpt>
      <trkpt lat="47.52428" lon="-1.38163">
        <ele>39</ele>
        <time>2021-05-30T10:01:56Z</time>
      </trkpt>
      <trkpt lat="47.52429" lon="-1.38132">
        <ele>39</ele>
        <time>2021-05-30T10:01:40Z</time>
      </trkpt>
      <trkpt lat="47.52425" lon="-1.38105">
        <ele>39.03</ele>
        <time>2021-05-30T10:01:24Z</time>
      </trkpt>
      <trkpt lat="47.52424" lon="-1.38076">
        <ele>40</ele>
        <time>2021-05-30T10:01:08Z</time>
      </trkpt>
      <trkpt lat="47.52423" lon="-1.38043">
        <ele>40</ele>
        <time>2021-05-30T10:00:52Z</time>
      </trkpt>
      <trkpt lat="47.52425" lon="-1.38013">
        <ele>40.18</ele>
        <time>2021-05-30T10:00:36Z</time>
      </trkpt>
      <trkpt lat="47.52422" lon="-1.37979">
        <ele>42</ele>
        <time>2021-05-30T10:00:16Z</time>
      </trkpt>
      <trkpt lat="47.52421" lon="-1.37947">
        <ele>42</ele>
        <time>2021-05-30T10:00:00Z</time>
      </trkpt>
      <trkpt lat="47.52422" lon="-1.37918">
        <ele>42.6</ele>
        <time>2021-05-30T09:59:44Z</time>
      </trkpt>
      <trkpt lat="47.52419" lon="-1.37886">
        <ele>43.99</ele>
        <time>2021-05-30T09:59:28Z</time>
      </trkpt>
      <trkpt lat="47.52416" lon="-1.37857">
        <ele>43</ele>
        <time>2021-05-30T09:59:12Z</time>
      </trkpt>
      <trkpt lat="47.52414" lon="-1.37823">
        <ele>43</ele>
        <time>2021-05-30T09:58:56Z</time>
      </trkpt>
      <trkpt lat="47.52412" lon="-1.37796">
        <ele>43</ele>
        <time>2021-05-30T09:58:40Z</time>
      </trkpt>
      <trkpt lat="47.52411" lon="-1.37767">
        <ele>43.08</ele>
        <time>2021-05-30T09:58:24Z</time>
      </trkpt>
      <trkpt lat="47.52409" lon="-1.37737">
        <ele>46</ele>
        <time>2021-05-30T09:58:04Z</time>
      </trkpt>
      <trkpt lat="47.5242" lon="-1.3771">
        <ele>45</ele>
        <time>2021-05-30T09:57:40Z</time>
      </trkpt>
      <trkpt lat="47.52418" lon="-1.37683">
        <ele>44.98</ele>
        <time>2021-05-30T09:57:20Z</time>
      </trkpt>
      <trkpt lat="47.52416" lon="-1.37653">
        <ele>45</ele>
        <time>2021-05-30T09:57:04Z</time>
      </trkpt>
      <trkpt lat="47.52412" lon="-1.37621">
        <ele>45</ele>
        <time>2021-05-30T09:56:48Z</time>
      </trkpt>
      <trkpt lat="47.52415" lon="-1.37593">
        <ele>44.82</ele>
        <time>2021-05-30T09:56:32Z</time>
      </trkpt>
      <trkpt lat="47.52409" lon="-1.37566">
        <ele>43</ele>
        <time>2021-05-30T09:56:12Z</time>
      </trkpt>
      <trkpt lat="47.52415" lon="-1.37539">
        <ele>43</ele>
        <time>2021-05-30T09:55:56Z</time>
      </trkpt>
      <trkpt lat="47.52409" lon="-1.37509">
        <ele>43</ele>
        <time>2021-05-30T09:55:40Z</time>
      </trkpt>
      <trkpt lat="47.52404" lon="-1.37478">
        <ele>43</ele>
        <time>2021-05-30T09:55:24Z</time>
      </trkpt>
      <trkpt lat="47.52399" lon="-1.37451">
        <ele>43</ele>
        <time>2021-05-30T09:55:08Z</time>
      </trkpt>
      <trkpt lat="47.52392" lon="-1.37418">
        <ele>42.7</ele>
        <time>2021-05-30T09:54:52Z</time>
      </trkpt>
      <trkpt lat="47.52377" lon="-1.37395">
        <ele>42</ele>
        <time>2021-05-30T09:54:36Z</time>
      </trkpt>
      <trkpt lat="47.5236" lon="-1.37388">
        <ele>42</ele>
        <time>2021-05-30T09:54:24Z</time>
      </trkpt>
      <trkpt lat="47.52341" lon="-1.3738">
        <ele>41.73</ele>
        <time>2021-05-30T09:54:08Z</time>
      </trkpt>
      <trkpt lat="47.52321" lon="-1.37369">
        <ele>39</ele>
        <time>2021-05-30T09:53:48Z</time>
      </trkpt>
      <trkpt lat="47.52304" lon="-1.37362">
        <ele>39</ele>
        <time>2021-05-30T09:53:36Z</time>
      </trkpt>
      <trkpt lat="47.52286" lon="-1.37353">
        <ele>39</ele>
        <time>2021-05-30T09:53:20Z</time>
      </trkpt>
      <trkpt lat="47.52264" lon="-1.37343">
        <ele>38.89</ele>
        <time>2021-05-30T09:53:04Z</time>
      </trkpt>
      <trkpt lat="47.52242" lon="-1.3734">
        <ele>35.01</ele>
        <time>2021-05-30T09:52:48Z</time>
      </trkpt>
      <trkpt lat="47.52223" lon="-1.3733">
        <ele>36</ele>
        <time>2021-05-30T09:52:32Z</time>
      </trkpt>
      <trkpt lat="47.52204" lon="-1.37323">
        <ele>36</ele>
        <time>2021-05-30T09:52:16Z</time>
      </trkpt>
      <trkpt lat="47.52185" lon="-1.37316">
        <ele>35.99</ele>
        <time>2021-05-30T09:52:00Z</time>
      </trkpt>
      <trkpt lat="47.52165" lon="-1.3731">
        <ele>35</ele>
        <time>2021-05-30T09:51:44Z</time>
      </trkpt>
      <trkpt lat="47.52147" lon="-1.37305">
        <ele>35</ele>
        <time>2021-05-30T09:51:28Z</time>
      </trkpt>
      <trkpt lat="47.52127" lon="-1.37294">
        <ele>35</ele>
        <time>2021-05-30T09:51:12Z</time>
      </trkpt>
      <trkpt lat="47.52109" lon="-1.37282">
        <ele>35</ele>
        <time>2021-05-30T09:50:52Z</time>
      </trkpt>
      <trkpt lat="47.52103" lon="-1.37254">
        <ele>35.3</ele>
        <time>2021-05-30T09:50:32Z</time>
      </trkpt>
      <trkpt lat="47.52101" lon="-1.37222">
        <ele>36</ele>
        <time>2021-05-30T09:50:16Z</time>
      </trkpt>
      <trkpt lat="47.52101" lon="-1.3719">
        <ele>35.97</ele>
        <time>2021-05-30T09:50:00Z</time>
      </trkpt>
      <trkpt lat="47.52108" lon="-1.37158">
        <ele>35</ele>
        <time>2021-05-30T09:49:44Z</time>
      </trkpt>
      <trkpt lat="47.5211" lon="-1.37131">
        <ele>35</ele>
        <time>2021-05-30T09:49:28Z</time>
      </trkpt>
      <trkpt lat="47.52111" lon="-1.371">
        <ele>34.95</ele>
        <time>2021-05-30T09:49:12Z</time>
      </trkpt>
      <trkpt lat="47.52113" lon="-1.37071">
        <ele>33</ele>
        <time>2021-05-30T09:48:56Z</time>
      </trkpt>
      <trkpt lat="47.52112" lon="-1.37044">
        <ele>33</ele>
        <time>2021-05-30T09:48:40Z</time>
      </trkpt>
      <trkpt lat="47.52109" lon="-1.37013">
        <ele>32.89</ele>
        <time>2021-05-30T09:48:24Z</time>
      </trkpt>
      <trkpt lat="47.52118" lon="-1.36985">
        <ele>29</ele>
        <time>2021-05-30T09:48:08Z</time>
      </trkpt>
      <trkpt lat="47.52132" lon="-1.36962">
        <ele>29</ele>
        <time>2021-05-30T09:47:52Z</time>
      </trkpt>
      <trkpt lat="47.52144" lon="-1.36937">
        <ele>29.05</ele>
        <time>2021-05-30T09:47:36Z</time>
      </trkpt>
      <trkpt lat="47.52143" lon="-1.36905">
        <ele>31</ele>
        <time>2021-05-30T09:47:20Z</time>
      </trkpt>
      <trkpt lat="47.52137" lon="-1.36875">
        <ele>31</ele>
        <time>2021-05-30T09:47:04Z</time>
      </trkpt>
      <trkpt lat="47.52136" lon="-1.36845">
        <ele>31.09</ele>
        <time>2021-05-30T09:46:48Z</time>
      </trkpt>
      <trkpt lat="47.52135" lon="-1.36812">
        <ele>32</ele>
        <time>2021-05-30T09:46:32Z</time>
      </trkpt>
      <trkpt lat="47.52134" lon="-1.36783">
        <ele>32</ele>
        <time>2021-05-30T09:46:16Z</time>
      </trkpt>
      <trkpt lat="47.5213" lon="-1.36754">
        <ele>31.7</ele>
        <time>2021-05-30T09:46:00Z</time>
      </trkpt>
      <trkpt lat="47.5213" lon="-1.36722">
        <ele>31</ele>
        <time>2021-05-30T09:45:44Z</time>
      </trkpt>
      <trkpt lat="47.52133" lon="-1.3669">
        <ele>31.01</ele>
        <time>2021-05-30T09:45:28Z</time>
      </trkpt>
      <trkpt lat="47.52137" lon="-1.36661">
        <ele>32</ele>
        <time>2021-05-30T09:45:12Z</time>
      </trkpt>
      <trkpt lat="47.52149" lon="-1.36629">
        <ele>32</ele>
        <time>2021-05-30T09:44:56Z</time>
      </trkpt>
      <trkpt lat="47.52159" lon="-1.36604">
        <ele>32.08</ele>
        <time>2021-05-30T09:44:40Z</time>
      </trkpt>
      <trkpt lat="47.52172" lon="-1.36583">
        <ele>35</ele>
        <time>2021-05-30T09:44:24Z</time>
      </trkpt>
      <trkpt lat="47.52183" lon="-1.36556">
        <ele>35</ele>
        <time>2021-05-30T09:44:08Z</time>
      </trkpt>
      <trkpt lat="47.52191" lon="-1.36524">
        <ele>35.03</ele>
        <time>2021-05-30T09:43:52Z</time>
      </trkpt>
      <trkpt lat="47.52187" lon="-1.36497">
        <ele>35.97</ele>
        <time>2021-05-30T09:43:40Z</time>
      </trkpt>
      <trkpt lat="47.52172" lon="-1.36479">
        <ele>34.8</ele>
        <time>2021-05-30T09:43:28Z</time>
      </trkpt>
      <trkpt lat="47.5215" lon="-1.3646">
        <ele>32</ele>
        <time>2021-05-30T09:43:12Z</time>
      </trkpt>
      <trkpt lat="47.52143" lon="-1.36431">
        <ele>32.18</ele>
        <time>2021-05-30T09:42:52Z</time>
      </trkpt>
      <trkpt lat="47.52139" lon="-1.36402">
        <ele>34</ele>
        <time>2021-05-30T09:42:36Z</time>
      </trkpt>
      <trkpt lat="47.52136" lon="-1.36371">
        <ele>34</ele>
        <time>2021-05-30T09:42:20Z</time>
      </trkpt>
      <trkpt lat="47.52135" lon="-1.3634">
        <ele>34</ele>
        <time>2021-05-30T09:42:04Z</time>
      </trkpt>
      <trkpt lat="47.52132" lon="-1.36307">
        <ele>34</ele>
        <time>2021-05-30T09:41:48Z</time>
      </trkpt>
      <trkpt lat="47.52128" lon="-1.36277">
        <ele>34</ele>
        <time>2021-05-30T09:41:32Z</time>
      </trkpt>
      <trkpt lat="47.52135" lon="-1.36244">
        <ele>34</ele>
        <time>2021-05-30T09:41:16Z</time>
      </trkpt>
      <trkpt lat="47.52139" lon="-1.36213">
        <ele>34</ele>
        <time>2021-05-30T09:41:00Z</time>
      </trkpt>
      <trkpt lat="47.52139" lon="-1.36184">
        <ele>34</ele>
        <time>2021-05-30T09:40:44Z</time>
      </trkpt>
      <trkpt lat="47.52145" lon="-1.36156">
        <ele>34</ele>
        <time>2021-05-30T09:40:32Z</time>
      </trkpt>
      <trkpt lat="47.52146" lon="-1.36128">
        <ele>34</ele>
        <time>2021-05-30T09:40:16Z</time>
      </trkpt>
      <trkpt lat="47.52151" lon="-1.36099">
        <ele>34</ele>
        <time>2021-05-30T09:40:03Z</time>
      </trkpt>
      <trkpt lat="47.52153" lon="-1.36068">
        <ele>34</ele>
        <time>2021-05-30T09:39:45Z</time>
      </trkpt>
      <trkpt lat="47.52156" lon="-1.3604">
        <ele>33.99</ele>
        <time>2021-05-30T09:39:32Z</time>
      </trkpt>
      <trkpt lat="47.52162" lon="-1.3601">
        <ele>33.1</ele>
        <time>2021-05-30T09:39:15Z</time>
      </trkpt>
      <trkpt lat="47.52167" lon="-1.35981">
        <ele>31.6</ele>
        <time>2021-05-30T09:38:58Z</time>
      </trkpt>
      <trkpt lat="47.52176" lon="-1.35955">
        <ele>33</ele>
        <time>2021-05-30T09:38:45Z</time>
      </trkpt>
      <trkpt lat="47.52189" lon="-1.3593">
        <ele>33</ele>
        <time>2021-05-30T09:38:29Z</time>
      </trkpt>
      <trkpt lat="47.52204" lon="-1.35907">
        <ele>33</ele>
        <time>2021-05-30T09:38:12Z</time>
      </trkpt>
      <trkpt lat="47.5222" lon="-1.35892">
        <ele>33</ele>
        <time>2021-05-30T09:37:56Z</time>
      </trkpt>
      <trkpt lat="47.52236" lon="-1.35877">
        <ele>33</ele>
        <time>2021-05-30T09:37:40Z</time>
      </trkpt>
      <trkpt lat="47.52254" lon="-1.35863">
        <ele>33</ele>
        <time>2021-05-30T09:37:28Z</time>
      </trkpt>
      <trkpt lat="47.52269" lon="-1.35846">
        <ele>33</ele>
        <time>2021-05-30T09:37:12Z</time>
      </trkpt>
      <trkpt lat="47.52285" lon="-1.35827">
        <ele>33</ele>
        <time>2021-05-30T09:36:56Z</time>
      </trkpt>
      <trkpt lat="47.52297" lon="-1.35802">
        <ele>33</ele>
        <time>2021-05-30T09:36:40Z</time>
      </trkpt>
      <trkpt lat="47.52304" lon="-1.35769">
        <ele>32.97</ele>
        <time>2021-05-30T09:36:24Z</time>
      </trkpt>
      <trkpt lat="47.52307" lon="-1.35739">
        <ele>32</ele>
        <time>2021-05-30T09:36:08Z</time>
      </trkpt>
      <trkpt lat="47.5231" lon="-1.35711">
        <ele>32</ele>
        <time>2021-05-30T09:35:56Z</time>
      </trkpt>
      <trkpt lat="47.52303" lon="-1.35679">
        <ele>32</ele>
        <time>2021-05-30T09:35:40Z</time>
      </trkpt>
      <trkpt lat="47.52291" lon="-1.35648">
        <ele>32</ele>
        <time>2021-05-30T09:35:24Z</time>
      </trkpt>
      <trkpt lat="47.52275" lon="-1.35627">
        <ele>32</ele>
        <time>2021-05-30T09:35:12Z</time>
      </trkpt>
      <trkpt lat="47.52259" lon="-1.35607">
        <ele>32.01</ele>
        <time>2021-05-30T09:34:56Z</time>
      </trkpt>
      <trkpt lat="47.52244" lon="-1.3559">
        <ele>33.36</ele>
        <time>2021-05-30T09:34:40Z</time>
      </trkpt>
      <trkpt lat="47.5223" lon="-1.3557">
        <ele>37</ele>
        <time>2021-05-30T09:34:24Z</time>
      </trkpt>
      <trkpt lat="47.52219" lon="-1.35548">
        <ele>37</ele>
        <time>2021-05-30T09:34:08Z</time>
      </trkpt>
      <trkpt lat="47.52206" lon="-1.35525">
        <ele>37</ele>
        <time>2021-05-30T09:33:44Z</time>
      </trkpt>
      <trkpt lat="47.52206" lon="-1.35495">
        <ele>37</ele>
        <time>2021-05-30T09:33:24Z</time>
      </trkpt>
      <trkpt lat="47.52215" lon="-1.35472">
        <ele>37</ele>
        <time>2021-05-30T09:33:12Z</time>
      </trkpt>
      <trkpt lat="47.52225" lon="-1.35446">
        <ele>37</ele>
        <time>2021-05-30T09:33:00Z</time>
      </trkpt>
      <trkpt lat="47.52235" lon="-1.35414">
        <ele>37</ele>
        <time>2021-05-30T09:32:40Z</time>
      </trkpt>
      <trkpt lat="47.52246" lon="-1.35387">
        <ele>36.82</ele>
        <time>2021-05-30T09:32:24Z</time>
      </trkpt>
      <trkpt lat="47.52256" lon="-1.35358">
        <ele>35.02</ele>
        <time>2021-05-30T09:32:08Z</time>
      </trkpt>
      <trkpt lat="47.52263" lon="-1.3533">
        <ele>37</ele>
        <time>2021-05-30T09:31:52Z</time>
      </trkpt>
      <trkpt lat="47.52269" lon="-1.35299">
        <ele>37</ele>
        <time>2021-05-30T09:31:36Z</time>
      </trkpt>
      <trkpt lat="47.52272" lon="-1.3527">
        <ele>36.97</ele>
        <time>2021-05-30T09:31:20Z</time>
      </trkpt>
      <trkpt lat="47.52279" lon="-1.35237">
        <ele>36</ele>
        <time>2021-05-30T09:31:04Z</time>
      </trkpt>
      <trkpt lat="47.52287" lon="-1.35206">
        <ele>36</ele>
        <time>2021-05-30T09:30:48Z</time>
      </trkpt>
      <trkpt lat="47.52294" lon="-1.35179">
        <ele>35.82</ele>
        <time>2021-05-30T09:30:36Z</time>
      </trkpt>
      <trkpt lat="47.52298" lon="-1.35147">
        <ele>34</ele>
        <time>2021-05-30T09:30:20Z</time>
      </trkpt>
      <trkpt lat="47.523" lon="-1.35114">
        <ele>34</ele>
        <time>2021-05-30T09:30:00Z</time>
      </trkpt>
      <trkpt lat="47.52314" lon="-1.35095">
        <ele>34</ele>
        <time>2021-05-30T09:29:48Z</time>
      </trkpt>
      <trkpt lat="47.52322" lon="-1.35062">
        <ele>34</ele>
        <time>2021-05-30T09:29:32Z</time>
      </trkpt>
      <trkpt lat="47.52323" lon="-1.35033">
        <ele>34</ele>
        <time>2021-05-30T09:29:16Z</time>
      </trkpt>
      <trkpt lat="47.52327" lon="-1.35003">
        <ele>33.4</ele>
        <time>2021-05-30T09:29:00Z</time>
      </trkpt>
      <trkpt lat="47.5233" lon="-1.34969">
        <ele>32.08</ele>
        <time>2021-05-30T09:28:44Z</time>
      </trkpt>
      <trkpt lat="47.52334" lon="-1.34937">
        <ele>34.95</ele>
        <time>2021-05-30T09:28:28Z</time>
      </trkpt>
      <trkpt lat="47.5234" lon="-1.34905">
        <ele>33</ele>
        <time>2021-05-30T09:28:12Z</time>
      </trkpt>
      <trkpt lat="47.52346" lon="-1.34876">
        <ele>33</ele>
        <time>2021-05-30T09:27:56Z</time>
      </trkpt>
      <trkpt lat="47.52358" lon="-1.34855">
        <ele>32.99</ele>
        <time>2021-05-30T09:27:44Z</time>
      </trkpt>
      <trkpt lat="47.52374" lon="-1.34833">
        <ele>32</ele>
        <time>2021-05-30T09:27:28Z</time>
      </trkpt>
      <trkpt lat="47.52393" lon="-1.34822">
        <ele>32</ele>
        <time>2021-05-30T09:27:16Z</time>
      </trkpt>
      <trkpt lat="47.52415" lon="-1.34804">
        <ele>32.6</ele>
        <time>2021-05-30T09:26:56Z</time>
      </trkpt>
      <trkpt lat="47.52432" lon="-1.3479">
        <ele>34</ele>
        <time>2021-05-30T09:26:40Z</time>
      </trkpt>
      <trkpt lat="47.5245" lon="-1.34772">
        <ele>34</ele>
        <time>2021-05-30T09:26:24Z</time>
      </trkpt>
      <trkpt lat="47.52468" lon="-1.3475">
        <ele>34</ele>
        <time>2021-05-30T09:26:04Z</time>
      </trkpt>
      <trkpt lat="47.5248" lon="-1.34726">
        <ele>34</ele>
        <time>2021-05-30T09:25:44Z</time>
      </trkpt>
      <trkpt lat="47.52491" lon="-1.34702">
        <ele>33.95</ele>
        <time>2021-05-30T09:25:28Z</time>
      </trkpt>
      <trkpt lat="47.52505" lon="-1.34679">
        <ele>32</ele>
        <time>2021-05-30T09:25:12Z</time>
      </trkpt>
      <trkpt lat="47.52493" lon="-1.34658">
        <ele>32</ele>
        <time>2021-05-30T09:24:56Z</time>
      </trkpt>
      <trkpt lat="47.52477" lon="-1.34637">
        <ele>32</ele>
        <time>2021-05-30T09:24:40Z</time>
      </trkpt>
      <trkpt lat="47.52459" lon="-1.3462">
        <ele>32</ele>
        <time>2021-05-30T09:24:24Z</time>
      </trkpt>
      <trkpt lat="47.52442" lon="-1.34598">
        <ele>31.99</ele>
        <time>2021-05-30T09:24:08Z</time>
      </trkpt>
      <trkpt lat="47.52422" lon="-1.3458">
        <ele>31.09</ele>
        <time>2021-05-30T09:23:52Z</time>
      </trkpt>
      <trkpt lat="47.52404" lon="-1.34561">
        <ele>32</ele>
        <time>2021-05-30T09:23:36Z</time>
      </trkpt>
      <trkpt lat="47.52387" lon="-1.3455">
        <ele>32</ele>
        <time>2021-05-30T09:23:24Z</time>
      </trkpt>
      <trkpt lat="47.52381" lon="-1.34524">
        <ele>31.99</ele>
        <time>2021-05-30T09:23:00Z</time>
      </trkpt>
      <trkpt lat="47.52391" lon="-1.34497">
        <ele>31</ele>
        <time>2021-05-30T09:22:44Z</time>
      </trkpt>
      <trkpt lat="47.524" lon="-1.34467">
        <ele>31</ele>
        <time>2021-05-30T09:22:28Z</time>
      </trkpt>
      <trkpt lat="47.52406" lon="-1.34438">
        <ele>31.03</ele>
        <time>2021-05-30T09:22:12Z</time>
      </trkpt>
      <trkpt lat="47.5241" lon="-1.3441">
        <ele>32</ele>
        <time>2021-05-30T09:21:56Z</time>
      </trkpt>
      <trkpt lat="47.52415" lon="-1.34379">
        <ele>31.7</ele>
        <time>2021-05-30T09:21:40Z</time>
      </trkpt>
      <trkpt lat="47.52422" lon="-1.34349">
        <ele>31</ele>
        <time>2021-05-30T09:21:24Z</time>
      </trkpt>
      <trkpt lat="47.52427" lon="-1.34321">
        <ele>31</ele>
        <time>2021-05-30T09:21:04Z</time>
      </trkpt>
      <trkpt lat="47.52439" lon="-1.34299">
        <ele>31</ele>
        <time>2021-05-30T09:20:48Z</time>
      </trkpt>
      <trkpt lat="47.52447" lon="-1.34268">
        <ele>31</ele>
        <time>2021-05-30T09:20:32Z</time>
      </trkpt>
      <trkpt lat="47.52451" lon="-1.34239">
        <ele>31</ele>
        <time>2021-05-30T09:20:16Z</time>
      </trkpt>
      <trkpt lat="47.52458" lon="-1.34213">
        <ele>31</ele>
        <time>2021-05-30T09:20:00Z</time>
      </trkpt>
      <trkpt lat="47.52457" lon="-1.34181">
        <ele>31.09</ele>
        <time>2021-05-30T09:19:44Z</time>
      </trkpt>
      <trkpt lat="47.5245" lon="-1.34156">
        <ele>32</ele>
        <time>2021-05-30T09:19:32Z</time>
      </trkpt>
      <trkpt lat="47.52436" lon="-1.3413">
        <ele>32</ele>
        <time>2021-05-30T09:19:12Z</time>
      </trkpt>
      <trkpt lat="47.5244" lon="-1.34103">
        <ele>31.99</ele>
        <time>2021-05-30T09:18:56Z</time>
      </trkpt>
      <trkpt lat="47.52452" lon="-1.34074">
        <ele>31</ele>
        <time>2021-05-30T09:18:36Z</time>
      </trkpt>
      <trkpt lat="47.52463" lon="-1.34046">
        <ele>31</ele>
        <time>2021-05-30T09:18:20Z</time>
      </trkpt>
      <trkpt lat="47.5247" lon="-1.34015">
        <ele>31.03</ele>
        <time>2021-05-30T09:18:00Z</time>
      </trkpt>
      <trkpt lat="47.52479" lon="-1.33987">
        <ele>32</ele>
        <time>2021-05-30T09:17:44Z</time>
      </trkpt>
      <trkpt lat="47.52487" lon="-1.33956">
        <ele>32</ele>
        <time>2021-05-30T09:17:28Z</time>
      </trkpt>
      <trkpt lat="47.52492" lon="-1.33929">
        <ele>31.97</ele>
        <time>2021-05-30T09:17:16Z</time>
      </trkpt>
      <trkpt lat="47.52503" lon="-1.33908">
        <ele>31</ele>
        <time>2021-05-30T09:17:00Z</time>
      </trkpt>
      <trkpt lat="47.52513" lon="-1.33884">
        <ele>31</ele>
        <time>2021-05-30T09:16:44Z</time>
      </trkpt>
      <trkpt lat="47.52526" lon="-1.33864">
        <ele>31</ele>
        <time>2021-05-30T09:16:28Z</time>
      </trkpt>
      <trkpt lat="47.52535" lon="-1.33834">
        <ele>31</ele>
        <time>2021-05-30T09:16:12Z</time>
      </trkpt>
      <trkpt lat="47.52549" lon="-1.33812">
        <ele>31</ele>
        <time>2021-05-30T09:15:52Z</time>
      </trkpt>
      <trkpt lat="47.52568" lon="-1.33809">
        <ele>31</ele>
        <time>2021-05-30T09:15:36Z</time>
      </trkpt>
      <trkpt lat="47.52576" lon="-1.33783">
        <ele>31</ele>
        <time>2021-05-30T09:15:20Z</time>
      </trkpt>
      <trkpt lat="47.52578" lon="-1.33753">
        <ele>31.3</ele>
        <time>2021-05-30T09:15:04Z</time>
      </trkpt>
      <trkpt lat="47.52567" lon="-1.33725">
        <ele>32</ele>
        <time>2021-05-30T09:14:48Z</time>
      </trkpt>
      <trkpt lat="47.52557" lon="-1.33701">
        <ele>32</ele>
        <time>2021-05-30T09:14:32Z</time>
      </trkpt>
      <trkpt lat="47.52547" lon="-1.33675">
        <ele>31.91</ele>
        <time>2021-05-30T09:14:12Z</time>
      </trkpt>
      <trkpt lat="47.52538" lon="-1.33651">
        <ele>31</ele>
        <time>2021-05-30T09:13:56Z</time>
      </trkpt>
      <trkpt lat="47.52535" lon="-1.33621">
        <ele>31</ele>
        <time>2021-05-30T09:13:40Z</time>
      </trkpt>
      <trkpt lat="47.52527" lon="-1.33595">
        <ele>31</ele>
        <time>2021-05-30T09:13:24Z</time>
      </trkpt>
      <trkpt lat="47.52523" lon="-1.33564">
        <ele>31</ele>
        <time>2021-05-30T09:13:08Z</time>
      </trkpt>
      <trkpt lat="47.52516" lon="-1.33538">
        <ele>31</ele>
        <time>2021-05-30T09:12:56Z</time>
      </trkpt>
      <trkpt lat="47.52512" lon="-1.33505">
        <ele>31</ele>
        <time>2021-05-30T09:12:36Z</time>
      </trkpt>
      <trkpt lat="47.52508" lon="-1.33476">
        <ele>31</ele>
        <time>2021-05-30T09:12:20Z</time>
      </trkpt>
      <trkpt lat="47.52509" lon="-1.33441">
        <ele>31</ele>
        <time>2021-05-30T09:12:04Z</time>
      </trkpt>
      <trkpt lat="47.5251" lon="-1.33413">
        <ele>31</ele>
        <time>2021-05-30T09:11:48Z</time>
      </trkpt>
      <trkpt lat="47.52512" lon="-1.33381">
        <ele>31</ele>
        <time>2021-05-30T09:11:28Z</time>
      </trkpt>
      <trkpt lat="47.52518" lon="-1.33356">
        <ele>31</ele>
        <time>2021-05-30T09:11:16Z</time>
      </trkpt>
      <trkpt lat="47.5253" lon="-1.33327">
        <ele>31</ele>
        <time>2021-05-30T09:11:00Z</time>
      </trkpt>
      <trkpt lat="47.52543" lon="-1.33305">
        <ele>31</ele>
        <time>2021-05-30T09:10:48Z</time>
      </trkpt>
      <trkpt lat="47.52551" lon="-1.33277">
        <ele>31</ele>
        <time>2021-05-30T09:10:28Z</time>
      </trkpt>
      <trkpt lat="47.52556" lon="-1.3325">
        <ele>32</ele>
        <time>2021-05-30T09:10:08Z</time>
      </trkpt>
      <trkpt lat="47.52563" lon="-1.33222">
        <ele>32</ele>
        <time>2021-05-30T09:09:52Z</time>
      </trkpt>
      <trkpt lat="47.52571" lon="-1.33198">
        <ele>31.99</ele>
        <time>2021-05-30T09:09:36Z</time>
      </trkpt>
      <trkpt lat="47.52582" lon="-1.33173">
        <ele>31.75</ele>
        <time>2021-05-30T09:09:24Z</time>
      </trkpt>
      <trkpt lat="47.52583" lon="-1.33141">
        <ele>32.95</ele>
        <time>2021-05-30T09:09:04Z</time>
      </trkpt>
      <trkpt lat="47.52589" lon="-1.3311">
        <ele>31.6</ele>
        <time>2021-05-30T09:04:20Z</time>
      </trkpt>
      <trkpt lat="47.52571" lon="-1.33118">
        <ele>33</ele>
        <time>2021-05-30T09:04:00Z</time>
      </trkpt>
      <trkpt lat="47.52561" lon="-1.3309">
        <ele>33</ele>
        <time>2021-05-30T09:03:44Z</time>
      </trkpt>
      <trkpt lat="47.52547" lon="-1.3307">
        <ele>33</ele>
        <time>2021-05-30T09:03:28Z</time>
      </trkpt>
      <trkpt lat="47.52529" lon="-1.33052">
        <ele>33</ele>
        <time>2021-05-30T09:03:12Z</time>
      </trkpt>
      <trkpt lat="47.52509" lon="-1.33046">
        <ele>33</ele>
        <time>2021-05-30T09:02:52Z</time>
      </trkpt>
      <trkpt lat="47.52491" lon="-1.33039">
        <ele>33</ele>
        <time>2021-05-30T09:02:24Z</time>
      </trkpt>
      <trkpt lat="47.52471" lon="-1.33028">
        <ele>33</ele>
        <time>2021-05-30T09:02:04Z</time>
      </trkpt>
      <trkpt lat="47.5246" lon="-1.33004">
        <ele>33</ele>
        <time>2021-05-30T09:01:48Z</time>
      </trkpt>
      <trkpt lat="47.52453" lon="-1.32978">
        <ele>33</ele>
        <time>2021-05-30T09:01:32Z</time>
      </trkpt>
      <trkpt lat="47.52453" lon="-1.32948">
        <ele>32.98</ele>
        <time>2021-05-30T09:01:16Z</time>
      </trkpt>
      <trkpt lat="47.52456" lon="-1.32916">
        <ele>31</ele>
        <time>2021-05-30T09:01:00Z</time>
      </trkpt>
      <trkpt lat="47.52462" lon="-1.32886">
        <ele>31</ele>
        <time>2021-05-30T09:00:44Z</time>
      </trkpt>
      <trkpt lat="47.5246" lon="-1.32852">
        <ele>31</ele>
        <time>2021-05-30T09:00:28Z</time>
      </trkpt>
      <trkpt lat="47.52463" lon="-1.32825">
        <ele>31</ele>
        <time>2021-05-30T09:00:12Z</time>
      </trkpt>
      <trkpt lat="47.52476" lon="-1.32799">
        <ele>31</ele>
        <time>2021-05-30T08:59:56Z</time>
      </trkpt>
      <trkpt lat="47.52485" lon="-1.32774">
        <ele>31</ele>
        <time>2021-05-30T08:59:40Z</time>
      </trkpt>
      <trkpt lat="47.52499" lon="-1.32753">
        <ele>31</ele>
        <time>2021-05-30T08:59:16Z</time>
      </trkpt>
      <trkpt lat="47.52509" lon="-1.3273">
        <ele>31</ele>
        <time>2021-05-30T08:59:00Z</time>
      </trkpt>
      <trkpt lat="47.52521" lon="-1.3271">
        <ele>31</ele>
        <time>2021-05-30T08:58:44Z</time>
      </trkpt>
      <trkpt lat="47.52529" lon="-1.3268">
        <ele>31</ele>
        <time>2021-05-30T08:58:28Z</time>
      </trkpt>
      <trkpt lat="47.5253" lon="-1.32647">
        <ele>31</ele>
        <time>2021-05-30T08:58:12Z</time>
      </trkpt>
      <trkpt lat="47.52532" lon="-1.32613">
        <ele>31</ele>
        <time>2021-05-30T08:57:52Z</time>
      </trkpt>
      <trkpt lat="47.52524" lon="-1.32585">
        <ele>31.3</ele>
        <time>2021-05-30T08:57:36Z</time>
      </trkpt>
      <trkpt lat="47.52518" lon="-1.32558">
        <ele>32</ele>
        <time>2021-05-30T08:57:20Z</time>
      </trkpt>
      <trkpt lat="47.52522" lon="-1.32524">
        <ele>31.99</ele>
        <time>2021-05-30T08:57:00Z</time>
      </trkpt>
      <trkpt lat="47.52529" lon="-1.32497">
        <ele>31</ele>
        <time>2021-05-30T08:56:44Z</time>
      </trkpt>
      <trkpt lat="47.52536" lon="-1.32468">
        <ele>31</ele>
        <time>2021-05-30T08:56:28Z</time>
      </trkpt>
      <trkpt lat="47.52539" lon="-1.32437">
        <ele>31</ele>
        <time>2021-05-30T08:56:12Z</time>
      </trkpt>
      <trkpt lat="47.52537" lon="-1.32409">
        <ele>31</ele>
        <time>2021-05-30T08:55:56Z</time>
      </trkpt>
      <trkpt lat="47.52546" lon="-1.32378">
        <ele>31</ele>
        <time>2021-05-30T08:55:36Z</time>
      </trkpt>
      <trkpt lat="47.52563" lon="-1.32357">
        <ele>31</ele>
        <time>2021-05-30T08:55:08Z</time>
      </trkpt>
      <trkpt lat="47.52578" lon="-1.3234">
        <ele>31.09</ele>
        <time>2021-05-30T08:54:56Z</time>
      </trkpt>
      <trkpt lat="47.52595" lon="-1.3232">
        <ele>32</ele>
        <time>2021-05-30T08:54:36Z</time>
      </trkpt>
      <trkpt lat="47.52608" lon="-1.32297">
        <ele>32</ele>
        <time>2021-05-30T08:54:20Z</time>
      </trkpt>
      <trkpt lat="47.52625" lon="-1.32281">
        <ele>32</ele>
        <time>2021-05-30T08:54:04Z</time>
      </trkpt>
      <trkpt lat="47.52641" lon="-1.32268">
        <ele>32</ele>
        <time>2021-05-30T08:53:48Z</time>
      </trkpt>
      <trkpt lat="47.52663" lon="-1.32265">
        <ele>32</ele>
        <time>2021-05-30T08:53:28Z</time>
      </trkpt>
      <trkpt lat="47.52685" lon="-1.32265">
        <ele>32</ele>
        <time>2021-05-30T08:53:08Z</time>
      </trkpt>
      <trkpt lat="47.52703" lon="-1.32257">
        <ele>32</ele>
        <time>2021-05-30T08:52:56Z</time>
      </trkpt>
      <trkpt lat="47.52718" lon="-1.32234">
        <ele>32</ele>
        <time>2021-05-30T08:52:40Z</time>
      </trkpt>
      <trkpt lat="47.52733" lon="-1.32216">
        <ele>32</ele>
        <time>2021-05-30T08:52:28Z</time>
      </trkpt>
      <trkpt lat="47.52748" lon="-1.32199">
        <ele>32</ele>
        <time>2021-05-30T08:52:08Z</time>
      </trkpt>
      <trkpt lat="47.52762" lon="-1.32176">
        <ele>32</ele>
        <time>2021-05-30T08:51:52Z</time>
      </trkpt>
      <trkpt lat="47.52771" lon="-1.3215">
        <ele>32</ele>
        <time>2021-05-30T08:51:36Z</time>
      </trkpt>
      <trkpt lat="47.52778" lon="-1.3212">
        <ele>32</ele>
        <time>2021-05-30T08:51:20Z</time>
      </trkpt>
      <trkpt lat="47.52788" lon="-1.32091">
        <ele>31.7</ele>
        <time>2021-05-30T08:51:00Z</time>
      </trkpt>
      <trkpt lat="47.52802" lon="-1.32063">
        <ele>31</ele>
        <time>2021-05-30T08:50:44Z</time>
      </trkpt>
      <trkpt lat="47.52816" lon="-1.32045">
        <ele>31</ele>
        <time>2021-05-30T08:50:28Z</time>
      </trkpt>
      <trkpt lat="47.52827" lon="-1.32023">
        <ele>31.05</ele>
        <time>2021-05-30T08:50:04Z</time>
      </trkpt>
      <trkpt lat="47.52839" lon="-1.32047">
        <ele>33</ele>
        <time>2021-05-30T08:49:44Z</time>
      </trkpt>
      <trkpt lat="47.52856" lon="-1.32069">
        <ele>33</ele>
        <time>2021-05-30T08:49:28Z</time>
      </trkpt>
      <trkpt lat="47.52871" lon="-1.32093">
        <ele>33</ele>
        <time>2021-05-30T08:49:12Z</time>
      </trkpt>
      <trkpt lat="47.52883" lon="-1.32115">
        <ele>33</ele>
        <time>2021-05-30T08:48:56Z</time>
      </trkpt>
      <trkpt lat="47.52893" lon="-1.32137">
        <ele>33</ele>
        <time>2021-05-30T08:48:44Z</time>
      </trkpt>
      <trkpt lat="47.52905" lon="-1.32161">
        <ele>33.02</ele>
        <time>2021-05-30T08:48:28Z</time>
      </trkpt>
      <trkpt lat="47.52917" lon="-1.32186">
        <ele>36</ele>
        <time>2021-05-30T08:48:12Z</time>
      </trkpt>
      <trkpt lat="47.52928" lon="-1.32212">
        <ele>36</ele>
        <time>2021-05-30T08:47:56Z</time>
      </trkpt>
      <trkpt lat="47.52939" lon="-1.32241">
        <ele>35.91</ele>
        <time>2021-05-30T08:47:40Z</time>
      </trkpt>
      <trkpt lat="47.5295" lon="-1.32265">
        <ele>35</ele>
        <time>2021-05-30T08:47:24Z</time>
      </trkpt>
      <trkpt lat="47.52959" lon="-1.32295">
        <ele>35</ele>
        <time>2021-05-30T08:47:08Z</time>
      </trkpt>
      <trkpt lat="47.5297" lon="-1.32324">
        <ele>34.91</ele>
        <time>2021-05-30T08:46:52Z</time>
      </trkpt>
      <trkpt lat="47.52983" lon="-1.32347">
        <ele>34</ele>
        <time>2021-05-30T08:46:36Z</time>
      </trkpt>
      <trkpt lat="47.52991" lon="-1.32372">
        <ele>34.08</ele>
        <time>2021-05-30T08:46:20Z</time>
      </trkpt>
      <trkpt lat="47.53002" lon="-1.32395">
        <ele>36.98</ele>
        <time>2021-05-30T08:46:08Z</time>
      </trkpt>
      <trkpt lat="47.53012" lon="-1.32424">
        <ele>35</ele>
        <time>2021-05-30T08:45:48Z</time>
      </trkpt>
      <trkpt lat="47.53021" lon="-1.32453">
        <ele>35</ele>
        <time>2021-05-30T08:45:32Z</time>
      </trkpt>
      <trkpt lat="47.53031" lon="-1.3248">
        <ele>34.98</ele>
        <time>2021-05-30T08:45:16Z</time>
      </trkpt>
      <trkpt lat="47.53038" lon="-1.32504">
        <ele>32</ele>
        <time>2021-05-30T08:45:00Z</time>
      </trkpt>
      <trkpt lat="47.53024" lon="-1.32521">
        <ele>32</ele>
        <time>2021-05-30T08:44:44Z</time>
      </trkpt>
      <trkpt lat="47.53009" lon="-1.32539">
        <ele>31.97</ele>
        <time>2021-05-30T08:44:28Z</time>
      </trkpt>
      <trkpt lat="47.52997" lon="-1.32563">
        <ele>31</ele>
        <time>2021-05-30T08:44:12Z</time>
      </trkpt>
      <trkpt lat="47.52986" lon="-1.32586">
        <ele>31</ele>
        <time>2021-05-30T08:44:00Z</time>
      </trkpt>
      <trkpt lat="47.52976" lon="-1.32613">
        <ele>31</ele>
        <time>2021-05-30T08:43:44Z</time>
      </trkpt>
      <trkpt lat="47.52972" lon="-1.32643">
        <ele>31.01</ele>
        <time>2021-05-30T08:43:28Z</time>
      </trkpt>
      <trkpt lat="47.52971" lon="-1.32676">
        <ele>32</ele>
        <time>2021-05-30T08:43:12Z</time>
      </trkpt>
      <trkpt lat="47.52971" lon="-1.32712">
        <ele>32</ele>
        <time>2021-05-30T08:42:56Z</time>
      </trkpt>
      <trkpt lat="47.52968" lon="-1.3274">
        <ele>32</ele>
        <time>2021-05-30T08:42:40Z</time>
      </trkpt>
      <trkpt lat="47.52959" lon="-1.32766">
        <ele>32</ele>
        <time>2021-05-30T08:42:24Z</time>
      </trkpt>
      <trkpt lat="47.52949" lon="-1.32797">
        <ele>32</ele>
        <time>2021-05-30T08:42:08Z</time>
      </trkpt>
      <trkpt lat="47.52942" lon="-1.32827">
        <ele>32.3</ele>
        <time>2021-05-30T08:41:52Z</time>
      </trkpt>
      <trkpt lat="47.52934" lon="-1.32859">
        <ele>33</ele>
        <time>2021-05-30T08:41:32Z</time>
      </trkpt>
      <trkpt lat="47.52926" lon="-1.32884">
        <ele>33</ele>
        <time>2021-05-30T08:41:16Z</time>
      </trkpt>
      <trkpt lat="47.52916" lon="-1.32912">
        <ele>33.4</ele>
        <time>2021-05-30T08:41:00Z</time>
      </trkpt>
      <trkpt lat="47.52911" lon="-1.32946">
        <ele>32</ele>
        <time>2021-05-30T08:40:44Z</time>
      </trkpt>
      <trkpt lat="47.52905" lon="-1.32973">
        <ele>32</ele>
        <time>2021-05-30T08:40:28Z</time>
      </trkpt>
      <trkpt lat="47.52895" lon="-1.32998">
        <ele>32.3</ele>
        <time>2021-05-30T08:40:12Z</time>
      </trkpt>
      <trkpt lat="47.529" lon="-1.3303">
        <ele>33</ele>
        <time>2021-05-30T08:39:43Z</time>
      </trkpt>
      <trkpt lat="47.52911" lon="-1.33057">
        <ele>33.02</ele>
        <time>2021-05-30T08:39:26Z</time>
      </trkpt>
      <trkpt lat="47.52919" lon="-1.33086">
        <ele>35.99</ele>
        <time>2021-05-30T08:39:10Z</time>
      </trkpt>
      <trkpt lat="47.5292" lon="-1.33115">
        <ele>35.1</ele>
        <time>2021-05-30T08:38:53Z</time>
      </trkpt>
      <trkpt lat="47.5291" lon="-1.33138">
        <ele>33</ele>
        <time>2021-05-30T08:38:37Z</time>
      </trkpt>
      <trkpt lat="47.52898" lon="-1.33162">
        <ele>32.7</ele>
        <time>2021-05-30T08:38:21Z</time>
      </trkpt>
      <trkpt lat="47.52889" lon="-1.33187">
        <ele>32</ele>
        <time>2021-05-30T08:38:04Z</time>
      </trkpt>
      <trkpt lat="47.52874" lon="-1.33207">
        <ele>32</ele>
        <time>2021-05-30T08:37:47Z</time>
      </trkpt>
      <trkpt lat="47.52866" lon="-1.33231">
        <ele>32</ele>
        <time>2021-05-30T08:37:35Z</time>
      </trkpt>
      <trkpt lat="47.52859" lon="-1.33257">
        <ele>32</ele>
        <time>2021-05-30T08:37:18Z</time>
      </trkpt>
      <trkpt lat="47.52853" lon="-1.33285">
        <ele>32</ele>
        <time>2021-05-30T08:37:02Z</time>
      </trkpt>
      <trkpt lat="47.52848" lon="-1.33318">
        <ele>32.09</ele>
        <time>2021-05-30T08:36:46Z</time>
      </trkpt>
      <trkpt lat="47.52851" lon="-1.33349">
        <ele>33</ele>
        <time>2021-05-30T08:36:30Z</time>
      </trkpt>
      <trkpt lat="47.52855" lon="-1.33376">
        <ele>33</ele>
        <time>2021-05-30T08:36:14Z</time>
      </trkpt>
      <trkpt lat="47.52855" lon="-1.33409">
        <ele>33</ele>
        <time>2021-05-30T08:35:54Z</time>
      </trkpt>
      <trkpt lat="47.52852" lon="-1.33437">
        <ele>33</ele>
        <time>2021-05-30T08:35:38Z</time>
      </trkpt>
      <trkpt lat="47.52856" lon="-1.33468">
        <ele>33</ele>
        <time>2021-05-30T08:35:22Z</time>
      </trkpt>
      <trkpt lat="47.52859" lon="-1.33495">
        <ele>33</ele>
        <time>2021-05-30T08:35:10Z</time>
      </trkpt>
      <trkpt lat="47.52863" lon="-1.33523">
        <ele>33</ele>
        <time>2021-05-30T08:34:54Z</time>
      </trkpt>
      <trkpt lat="47.52864" lon="-1.33554">
        <ele>33</ele>
        <time>2021-05-30T08:34:38Z</time>
      </trkpt>
      <trkpt lat="47.52868" lon="-1.33582">
        <ele>33.3</ele>
        <time>2021-05-30T08:34:22Z</time>
      </trkpt>
      <trkpt lat="47.5287" lon="-1.33611">
        <ele>34</ele>
        <time>2021-05-30T08:34:06Z</time>
      </trkpt>
      <trkpt lat="47.52872" lon="-1.33644">
        <ele>34.22</ele>
        <time>2021-05-30T08:33:46Z</time>
      </trkpt>
      <trkpt lat="47.52879" lon="-1.33674">
        <ele>42</ele>
        <time>2021-05-30T08:33:30Z</time>
      </trkpt>
      <trkpt lat="47.52883" lon="-1.33705">
        <ele>42</ele>
        <time>2021-05-30T08:33:14Z</time>
      </trkpt>
      <trkpt lat="47.52884" lon="-1.33737">
        <ele>42.03</ele>
        <time>2021-05-30T08:32:58Z</time>
      </trkpt>
      <trkpt lat="47.52886" lon="-1.33764">
        <ele>43</ele>
        <time>2021-05-30T08:32:42Z</time>
      </trkpt>
      <trkpt lat="47.52886" lon="-1.33793">
        <ele>43</ele>
        <time>2021-05-30T08:32:26Z</time>
      </trkpt>
      <trkpt lat="47.52886" lon="-1.33824">
        <ele>43</ele>
        <time>2021-05-30T08:32:10Z</time>
      </trkpt>
      <trkpt lat="47.52882" lon="-1.33854">
        <ele>43</ele>
        <time>2021-05-30T08:31:54Z</time>
      </trkpt>
      <trkpt lat="47.52879" lon="-1.33882">
        <ele>42.99</ele>
        <time>2021-05-30T08:31:38Z</time>
      </trkpt>
      <trkpt lat="47.52875" lon="-1.33913">
        <ele>41.8</ele>
        <time>2021-05-30T08:31:22Z</time>
      </trkpt>
      <trkpt lat="47.52868" lon="-1.33944">
        <ele>39</ele>
        <time>2021-05-30T08:31:06Z</time>
      </trkpt>
      <trkpt lat="47.52858" lon="-1.33968">
        <ele>39.03</ele>
        <time>2021-05-30T08:30:50Z</time>
      </trkpt>
      <trkpt lat="47.52852" lon="-1.34">
        <ele>43</ele>
        <time>2021-05-30T08:30:34Z</time>
      </trkpt>
      <trkpt lat="47.52842" lon="-1.34028">
        <ele>43</ele>
        <time>2021-05-30T08:30:18Z</time>
      </trkpt>
      <trkpt lat="47.52841" lon="-1.34059">
        <ele>42.97</ele>
        <time>2021-05-30T08:30:02Z</time>
      </trkpt>
      <trkpt lat="47.52834" lon="-1.34086">
        <ele>39.9</ele>
        <time>2021-05-30T08:29:46Z</time>
      </trkpt>
      <trkpt lat="47.52829" lon="-1.34119">
        <ele>35.06</ele>
        <time>2021-05-30T08:29:30Z</time>
      </trkpt>
      <trkpt lat="47.52836" lon="-1.34149">
        <ele>41.87</ele>
        <time>2021-05-30T08:29:14Z</time>
      </trkpt>
      <trkpt lat="47.52842" lon="-1.3418">
        <ele>37</ele>
        <time>2021-05-30T08:28:58Z</time>
      </trkpt>
      <trkpt lat="47.52854" lon="-1.34206">
        <ele>37</ele>
        <time>2021-05-30T08:28:42Z</time>
      </trkpt>
      <trkpt lat="47.5287" lon="-1.3422">
        <ele>37</ele>
        <time>2021-05-30T08:28:26Z</time>
      </trkpt>
      <trkpt lat="47.52877" lon="-1.34246">
        <ele>38.8</ele>
        <time>2021-05-30T08:28:06Z</time>
      </trkpt>
      <trkpt lat="47.52877" lon="-1.34278">
        <ele>43</ele>
        <time>2021-05-30T08:27:46Z</time>
      </trkpt>
      <trkpt lat="47.52866" lon="-1.34301">
        <ele>43</ele>
        <time>2021-05-30T08:27:30Z</time>
      </trkpt>
      <trkpt lat="47.52851" lon="-1.34324">
        <ele>43</ele>
        <time>2021-05-30T08:27:10Z</time>
      </trkpt>
      <trkpt lat="47.52841" lon="-1.34351">
        <ele>42.92</ele>
        <time>2021-05-30T08:26:50Z</time>
      </trkpt>
      <trkpt lat="47.52827" lon="-1.34379">
        <ele>40</ele>
        <time>2021-05-30T08:26:34Z</time>
      </trkpt>
      <trkpt lat="47.52811" lon="-1.34398">
        <ele>40</ele>
        <time>2021-05-30T08:26:06Z</time>
      </trkpt>
      <trkpt lat="47.52806" lon="-1.34424">
        <ele>37</ele>
        <time>2021-05-30T08:25:30Z</time>
      </trkpt>
      <trkpt lat="47.52796" lon="-1.34453">
        <ele>37</ele>
        <time>2021-05-30T08:25:06Z</time>
      </trkpt>
      <trkpt lat="47.52814" lon="-1.34461">
        <ele>36.99</ele>
        <time>2021-05-30T08:24:50Z</time>
      </trkpt>
      <trkpt lat="47.52833" lon="-1.34467">
        <ele>36.7</ele>
        <time>2021-05-30T08:24:38Z</time>
      </trkpt>
      <trkpt lat="47.52852" lon="-1.3447">
        <ele>36</ele>
        <time>2021-05-30T08:24:26Z</time>
      </trkpt>
      <trkpt lat="47.52876" lon="-1.34473">
        <ele>36</ele>
        <time>2021-05-30T08:24:10Z</time>
      </trkpt>
      <trkpt lat="47.52898" lon="-1.34477">
        <ele>36.03</ele>
        <time>2021-05-30T08:23:54Z</time>
      </trkpt>
      <trkpt lat="47.52917" lon="-1.34481">
        <ele>37</ele>
        <time>2021-05-30T08:23:42Z</time>
      </trkpt>
      <trkpt lat="47.5294" lon="-1.34476">
        <ele>37</ele>
        <time>2021-05-30T08:23:26Z</time>
      </trkpt>
      <trkpt lat="47.52964" lon="-1.34466">
        <ele>37</ele>
        <time>2021-05-30T08:23:10Z</time>
      </trkpt>
      <trkpt lat="47.52982" lon="-1.3446">
        <ele>37.03</ele>
        <time>2021-05-30T08:22:58Z</time>
      </trkpt>
      <trkpt lat="47.53003" lon="-1.34453">
        <ele>38</ele>
        <time>2021-05-30T08:22:46Z</time>
      </trkpt>
      <trkpt lat="47.53021" lon="-1.34446">
        <ele>38</ele>
        <time>2021-05-30T08:22:34Z</time>
      </trkpt>
      <trkpt lat="47.53043" lon="-1.34437">
        <ele>38</ele>
        <time>2021-05-30T08:22:18Z</time>
      </trkpt>
      <trkpt lat="47.5306" lon="-1.34428">
        <ele>38</ele>
        <time>2021-05-30T08:22:06Z</time>
      </trkpt>
      <trkpt lat="47.53081" lon="-1.34421">
        <ele>39.02</ele>
        <time>2021-05-30T08:21:30Z</time>
      </trkpt>
      <trkpt lat="47.53103" lon="-1.3441">
        <ele>40</ele>
        <time>2021-05-30T08:21:14Z</time>
      </trkpt>
      <trkpt lat="47.53124" lon="-1.34407">
        <ele>40</ele>
        <time>2021-05-30T08:20:58Z</time>
      </trkpt>
      <trkpt lat="47.53145" lon="-1.34411">
        <ele>40.06</ele>
        <time>2021-05-30T08:20:42Z</time>
      </trkpt>
      <trkpt lat="47.53169" lon="-1.34417">
        <ele>47</ele>
        <time>2021-05-30T08:20:26Z</time>
      </trkpt>
      <trkpt lat="47.5319" lon="-1.34417">
        <ele>47</ele>
        <time>2021-05-30T08:20:10Z</time>
      </trkpt>
      <trkpt lat="47.53208" lon="-1.34418">
        <ele>47</ele>
        <time>2021-05-30T08:19:58Z</time>
      </trkpt>
      <trkpt lat="47.53232" lon="-1.34422">
        <ele>47.02</ele>
        <time>2021-05-30T08:19:42Z</time>
      </trkpt>
      <trkpt lat="47.53253" lon="-1.34424">
        <ele>50</ele>
        <time>2021-05-30T08:19:26Z</time>
      </trkpt>
      <trkpt lat="47.53273" lon="-1.34432">
        <ele>50</ele>
        <time>2021-05-30T08:19:10Z</time>
      </trkpt>
      <trkpt lat="47.53288" lon="-1.34456">
        <ele>50</ele>
        <time>2021-05-30T08:18:54Z</time>
      </trkpt>
      <trkpt lat="47.53303" lon="-1.3448">
        <ele>50.03</ele>
        <time>2021-05-30T08:18:34Z</time>
      </trkpt>
      <trkpt lat="47.53295" lon="-1.34512">
        <ele>51</ele>
        <time>2021-05-30T08:18:18Z</time>
      </trkpt>
      <trkpt lat="47.53293" lon="-1.34545">
        <ele>51</ele>
        <time>2021-05-30T08:18:02Z</time>
      </trkpt>
      <trkpt lat="47.53288" lon="-1.34578">
        <ele>50.7</ele>
        <time>2021-05-30T08:17:46Z</time>
      </trkpt>
      <trkpt lat="47.53282" lon="-1.34611">
        <ele>50</ele>
        <time>2021-05-30T08:17:30Z</time>
      </trkpt>
      <trkpt lat="47.53278" lon="-1.34645">
        <ele>50.03</ele>
        <time>2021-05-30T08:17:14Z</time>
      </trkpt>
      <trkpt lat="47.53275" lon="-1.34678">
        <ele>51</ele>
        <time>2021-05-30T08:16:58Z</time>
      </trkpt>
      <trkpt lat="47.53272" lon="-1.34712">
        <ele>51</ele>
        <time>2021-05-30T08:16:42Z</time>
      </trkpt>
      <trkpt lat="47.53276" lon="-1.34739">
        <ele>50.91</ele>
        <time>2021-05-30T08:16:30Z</time>
      </trkpt>
      <trkpt lat="47.5328" lon="-1.34772">
        <ele>50</ele>
        <time>2021-05-30T08:16:14Z</time>
      </trkpt>
      <trkpt lat="47.5329" lon="-1.34802">
        <ele>50</ele>
        <time>2021-05-30T08:15:58Z</time>
      </trkpt>
      <trkpt lat="47.53307" lon="-1.34814">
        <ele>50</ele>
        <time>2021-05-30T08:15:46Z</time>
      </trkpt>
      <trkpt lat="47.53331" lon="-1.34812">
        <ele>50.3</ele>
        <time>2021-05-30T08:15:30Z</time>
      </trkpt>
      <trkpt lat="47.53349" lon="-1.34808">
        <ele>51</ele>
        <time>2021-05-30T08:15:18Z</time>
      </trkpt>
      <trkpt lat="47.53371" lon="-1.34801">
        <ele>51</ele>
        <time>2021-05-30T08:15:02Z</time>
      </trkpt>
      <trkpt lat="47.53394" lon="-1.34797">
        <ele>51</ele>
        <time>2021-05-30T08:14:46Z</time>
      </trkpt>
      <trkpt lat="47.53414" lon="-1.34791">
        <ele>51</ele>
        <time>2021-05-30T08:14:30Z</time>
      </trkpt>
      <trkpt lat="47.53436" lon="-1.34785">
        <ele>51</ele>
        <time>2021-05-30T08:14:14Z</time>
      </trkpt>
      <trkpt lat="47.53459" lon="-1.3478">
        <ele>51</ele>
        <time>2021-05-30T08:13:58Z</time>
      </trkpt>
      <trkpt lat="47.53477" lon="-1.34776">
        <ele>51</ele>
        <time>2021-05-30T08:13:46Z</time>
      </trkpt>
      <trkpt lat="47.53499" lon="-1.3477">
        <ele>50.7</ele>
        <time>2021-05-30T08:13:30Z</time>
      </trkpt>
      <trkpt lat="47.5352" lon="-1.34764">
        <ele>50</ele>
        <time>2021-05-30T08:13:14Z</time>
      </trkpt>
      <trkpt lat="47.53544" lon="-1.34757">
        <ele>50</ele>
        <time>2021-05-30T08:12:58Z</time>
      </trkpt>
      <trkpt lat="47.53567" lon="-1.34752">
        <ele>50.22</ele>
        <time>2021-05-30T08:12:42Z</time>
      </trkpt>
      <trkpt lat="47.53589" lon="-1.34745">
        <ele>51</ele>
        <time>2021-05-30T08:12:26Z</time>
      </trkpt>
      <trkpt lat="47.53612" lon="-1.3474">
        <ele>51</ele>
        <time>2021-05-30T08:12:10Z</time>
      </trkpt>
      <trkpt lat="47.53633" lon="-1.34736">
        <ele>51</ele>
        <time>2021-05-30T08:11:54Z</time>
      </trkpt>
      <trkpt lat="47.53656" lon="-1.34732">
        <ele>51</ele>
        <time>2021-05-30T08:11:38Z</time>
      </trkpt>
      <trkpt lat="47.53664" lon="-1.34761">
        <ele>51.06</ele>
        <time>2021-05-30T08:11:22Z</time>
      </trkpt>
      <trkpt lat="47.53668" lon="-1.34795">
        <ele>54</ele>
        <time>2021-05-30T08:11:02Z</time>
      </trkpt>
      <trkpt lat="47.53671" lon="-1.34823">
        <ele>54</ele>
        <time>2021-05-30T08:10:46Z</time>
      </trkpt>
      <trkpt lat="47.53674" lon="-1.3485">
        <ele>54</ele>
        <time>2021-05-30T08:10:34Z</time>
      </trkpt>
      <trkpt lat="47.53678" lon="-1.34881">
        <ele>54.01</ele>
        <time>2021-05-30T08:10:18Z</time>
      </trkpt>
      <trkpt lat="47.53681" lon="-1.34909">
        <ele>54.3</ele>
        <time>2021-05-30T08:10:06Z</time>
      </trkpt>
      <trkpt lat="47.53685" lon="-1.34937">
        <ele>55</ele>
        <time>2021-05-30T08:09:50Z</time>
      </trkpt>
      <trkpt lat="47.53697" lon="-1.34959">
        <ele>55</ele>
        <time>2021-05-30T08:09:34Z</time>
      </trkpt>
      <trkpt lat="47.53712" lon="-1.34982">
        <ele>55.11</ele>
        <time>2021-05-30T08:09:22Z</time>
      </trkpt>
      <trkpt lat="47.53726" lon="-1.35008">
        <ele>59</ele>
        <time>2021-05-30T08:09:06Z</time>
      </trkpt>
      <trkpt lat="47.53738" lon="-1.35031">
        <ele>59</ele>
        <time>2021-05-30T08:08:50Z</time>
      </trkpt>
      <trkpt lat="47.53749" lon="-1.35059">
        <ele>58.82</ele>
        <time>2021-05-30T08:08:34Z</time>
      </trkpt>
      <trkpt lat="47.53755" lon="-1.35085">
        <ele>57</ele>
        <time>2021-05-30T08:08:22Z</time>
      </trkpt>
      <trkpt lat="47.53763" lon="-1.35115">
        <ele>57</ele>
        <time>2021-05-30T08:08:06Z</time>
      </trkpt>
      <trkpt lat="47.53767" lon="-1.35147">
        <ele>57</ele>
        <time>2021-05-30T08:07:50Z</time>
      </trkpt>
      <trkpt lat="47.53771" lon="-1.35176">
        <ele>57</ele>
        <time>2021-05-30T08:07:34Z</time>
      </trkpt>
      <trkpt lat="47.53773" lon="-1.35206">
        <ele>57</ele>
        <time>2021-05-30T08:07:18Z</time>
      </trkpt>
      <trkpt lat="47.53776" lon="-1.35241">
        <ele>56.7</ele>
        <time>2021-05-30T08:07:02Z</time>
      </trkpt>
      <trkpt lat="47.53779" lon="-1.35277">
        <ele>56</ele>
        <time>2021-05-30T08:06:46Z</time>
      </trkpt>
      <trkpt lat="47.53781" lon="-1.35309">
        <ele>55.98</ele>
        <time>2021-05-30T08:06:30Z</time>
      </trkpt>
      <trkpt lat="47.53784" lon="-1.35341">
        <ele>54</ele>
        <time>2021-05-30T08:06:14Z</time>
      </trkpt>
      <trkpt lat="47.53779" lon="-1.3537">
        <ele>54</ele>
        <time>2021-05-30T08:05:58Z</time>
      </trkpt>
      <trkpt lat="47.53762" lon="-1.35387">
        <ele>54.11</ele>
        <time>2021-05-30T08:05:42Z</time>
      </trkpt>
      <trkpt lat="47.53742" lon="-1.35401">
        <ele>58</ele>
        <time>2021-05-30T08:05:26Z</time>
      </trkpt>
      <trkpt lat="47.53723" lon="-1.35412">
        <ele>57.73</ele>
        <time>2021-05-30T08:05:10Z</time>
      </trkpt>
      <trkpt lat="47.53704" lon="-1.35424">
        <ele>55</ele>
        <time>2021-05-30T08:04:54Z</time>
      </trkpt>
      <trkpt lat="47.53682" lon="-1.35439">
        <ele>54.99</ele>
        <time>2021-05-30T08:04:34Z</time>
      </trkpt>
      <trkpt lat="47.53662" lon="-1.35448">
        <ele>54</ele>
        <time>2021-05-30T08:04:18Z</time>
      </trkpt>
      <trkpt lat="47.53644" lon="-1.35463">
        <ele>54</ele>
        <time>2021-05-30T08:04:02Z</time>
      </trkpt>
      <trkpt lat="47.53623" lon="-1.35478">
        <ele>54</ele>
        <time>2021-05-30T08:03:46Z</time>
      </trkpt>
      <trkpt lat="47.53609" lon="-1.35496">
        <ele>54.3</ele>
        <time>2021-05-30T08:03:30Z</time>
      </trkpt>
      <trkpt lat="47.53617" lon="-1.35521">
        <ele>55</ele>
        <time>2021-05-30T08:03:18Z</time>
      </trkpt>
      <trkpt lat="47.53626" lon="-1.3555">
        <ele>55</ele>
        <time>2021-05-30T08:03:02Z</time>
      </trkpt>
      <trkpt lat="47.53635" lon="-1.35574">
        <ele>55.18</ele>
        <time>2021-05-30T08:02:50Z</time>
      </trkpt>
      <trkpt lat="47.53645" lon="-1.35606">
        <ele>57</ele>
        <time>2021-05-30T08:02:34Z</time>
      </trkpt>
      <trkpt lat="47.53651" lon="-1.35634">
        <ele>57</ele>
        <time>2021-05-30T08:02:18Z</time>
      </trkpt>
      <trkpt lat="47.53659" lon="-1.3566">
        <ele>57.58</ele>
        <time>2021-05-30T08:02:02Z</time>
      </trkpt>
      <trkpt lat="47.53669" lon="-1.3569">
        <ele>56</ele>
        <time>2021-05-30T08:01:46Z</time>
      </trkpt>
      <trkpt lat="47.53676" lon="-1.35724">
        <ele>55.99</ele>
        <time>2021-05-30T08:01:26Z</time>
      </trkpt>
      <trkpt lat="47.53683" lon="-1.35755">
        <ele>55</ele>
        <time>2021-05-30T08:01:10Z</time>
      </trkpt>
      <trkpt lat="47.53682" lon="-1.35782">
        <ele>55</ele>
        <time>2021-05-30T08:00:58Z</time>
      </trkpt>
      <trkpt lat="47.53678" lon="-1.35815">
        <ele>55</ele>
        <time>2021-05-30T08:00:42Z</time>
      </trkpt>
      <trkpt lat="47.53679" lon="-1.35849">
        <ele>55</ele>
        <time>2021-05-30T08:00:26Z</time>
      </trkpt>
      <trkpt lat="47.53684" lon="-1.35879">
        <ele>55</ele>
        <time>2021-05-30T08:00:10Z</time>
      </trkpt>
      <trkpt lat="47.53693" lon="-1.35911">
        <ele>55.6</ele>
        <time>2021-05-30T07:59:54Z</time>
      </trkpt>
      <trkpt lat="47.53705" lon="-1.3594">
        <ele>57</ele>
        <time>2021-05-30T07:59:38Z</time>
      </trkpt>
      <trkpt lat="47.53716" lon="-1.35968">
        <ele>57</ele>
        <time>2021-05-30T07:59:22Z</time>
      </trkpt>
      <trkpt lat="47.53726" lon="-1.35999">
        <ele>56.4</ele>
        <time>2021-05-30T07:58:46Z</time>
      </trkpt>
      <trkpt lat="47.53746" lon="-1.36005">
        <ele>55.33</ele>
        <time>2021-05-30T07:58:26Z</time>
      </trkpt>
      <trkpt lat="47.53764" lon="-1.35982">
        <ele>54</ele>
        <time>2021-05-30T07:58:10Z</time>
      </trkpt>
      <trkpt lat="47.53779" lon="-1.35965">
        <ele>54</ele>
        <time>2021-05-30T07:57:58Z</time>
      </trkpt>
      <trkpt lat="47.53795" lon="-1.35944">
        <ele>54</ele>
        <time>2021-05-30T07:57:46Z</time>
      </trkpt>
      <trkpt lat="47.5381" lon="-1.35926">
        <ele>53.91</ele>
        <time>2021-05-30T07:57:30Z</time>
      </trkpt>
      <trkpt lat="47.53828" lon="-1.35903">
        <ele>52.91</ele>
        <time>2021-05-30T07:57:14Z</time>
      </trkpt>
      <trkpt lat="47.53843" lon="-1.3589">
        <ele>52</ele>
        <time>2021-05-30T07:57:02Z</time>
      </trkpt>
      <trkpt lat="47.53861" lon="-1.3587">
        <ele>52</ele>
        <time>2021-05-30T07:56:46Z</time>
      </trkpt>
      <trkpt lat="47.53877" lon="-1.35854">
        <ele>52</ele>
        <time>2021-05-30T07:56:30Z</time>
      </trkpt>
      <trkpt lat="47.53896" lon="-1.35832">
        <ele>52.81</ele>
        <time>2021-05-30T07:56:10Z</time>
      </trkpt>
      <trkpt lat="47.53888" lon="-1.35886">
        <ele>52.37</ele>
        <time>2021-05-30T07:56:06Z</time>
      </trkpt>
      <trkpt lat="47.53921" lon="-1.35807">
        <ele>62</ele>
        <time>2021-05-30T07:55:49Z</time>
      </trkpt>
      <trkpt lat="47.53941" lon="-1.35813">
        <ele>61.92</ele>
        <time>2021-05-30T07:55:21Z</time>
      </trkpt>
      <trkpt lat="47.53943" lon="-1.35842">
        <ele>59</ele>
        <time>2021-05-30T07:55:05Z</time>
      </trkpt>
      <trkpt lat="47.53942" lon="-1.35872">
        <ele>58.91</ele>
        <time>2021-05-30T07:54:33Z</time>
      </trkpt>
      <trkpt lat="47.53927" lon="-1.35892">
        <ele>58.7</ele>
        <time>2021-05-30T07:54:29Z</time>
      </trkpt>
      <trkpt lat="47.53956" lon="-1.35937">
        <ele>58</ele>
        <time>2021-05-30T07:54:21Z</time>
      </trkpt>
      <trkpt lat="47.53959" lon="-1.35972">
        <ele>57.98</ele>
        <time>2021-05-30T07:54:05Z</time>
      </trkpt>
      <trkpt lat="47.53964" lon="-1.36005">
        <ele>56</ele>
        <time>2021-05-30T07:53:49Z</time>
      </trkpt>
      <trkpt lat="47.53967" lon="-1.36032">
        <ele>56</ele>
        <time>2021-05-30T07:53:37Z</time>
      </trkpt>
      <trkpt lat="47.53972" lon="-1.36063">
        <ele>55.86</ele>
        <time>2021-05-30T07:53:21Z</time>
      </trkpt>
      <trkpt lat="47.53976" lon="-1.36092">
        <ele>51</ele>
        <time>2021-05-30T07:53:09Z</time>
      </trkpt>
      <trkpt lat="47.53978" lon="-1.36125">
        <ele>51</ele>
        <time>2021-05-30T07:52:53Z</time>
      </trkpt>
      <trkpt lat="47.53975" lon="-1.36155">
        <ele>50.82</ele>
        <time>2021-05-30T07:52:37Z</time>
      </trkpt>
      <trkpt lat="47.53968" lon="-1.36189">
        <ele>49</ele>
        <time>2021-05-30T07:52:21Z</time>
      </trkpt>
      <trkpt lat="47.53962" lon="-1.36215">
        <ele>49</ele>
        <time>2021-05-30T07:52:09Z</time>
      </trkpt>
      <trkpt lat="47.53954" lon="-1.36248">
        <ele>48.7</ele>
        <time>2021-05-30T07:51:53Z</time>
      </trkpt>
      <trkpt lat="47.53946" lon="-1.36278">
        <ele>48</ele>
        <time>2021-05-30T07:51:37Z</time>
      </trkpt>
      <trkpt lat="47.53943" lon="-1.36313">
        <ele>47.97</ele>
        <time>2021-05-30T07:51:21Z</time>
      </trkpt>
      <trkpt lat="47.53942" lon="-1.36342">
        <ele>47</ele>
        <time>2021-05-30T07:51:09Z</time>
      </trkpt>
      <trkpt lat="47.53957" lon="-1.36365">
        <ele>47</ele>
        <time>2021-05-30T07:50:53Z</time>
      </trkpt>
      <trkpt lat="47.53976" lon="-1.36372">
        <ele>47</ele>
        <time>2021-05-30T07:50:37Z</time>
      </trkpt>
      <trkpt lat="47.54" lon="-1.36374">
        <ele>46.4</ele>
        <time>2021-05-30T07:50:21Z</time>
      </trkpt>
      <trkpt lat="47.54021" lon="-1.36378">
        <ele>45</ele>
        <time>2021-05-30T07:50:05Z</time>
      </trkpt>
      <trkpt lat="47.54033" lon="-1.36405">
        <ele>45</ele>
        <time>2021-05-30T07:49:49Z</time>
      </trkpt>
      <trkpt lat="47.54032" lon="-1.36438">
        <ele>45</ele>
        <time>2021-05-30T07:49:33Z</time>
      </trkpt>
      <trkpt lat="47.5403" lon="-1.36469">
        <ele>44.99</ele>
        <time>2021-05-30T07:49:17Z</time>
      </trkpt>
      <trkpt lat="47.54027" lon="-1.36504">
        <ele>44</ele>
        <time>2021-05-30T07:49:01Z</time>
      </trkpt>
      <trkpt lat="47.54027" lon="-1.36536">
        <ele>44</ele>
        <time>2021-05-30T07:48:45Z</time>
      </trkpt>
      <trkpt lat="47.5403" lon="-1.36567">
        <ele>44</ele>
        <time>2021-05-30T07:48:29Z</time>
      </trkpt>
      <trkpt lat="47.54038" lon="-1.36593">
        <ele>44</ele>
        <time>2021-05-30T07:48:17Z</time>
      </trkpt>
      <trkpt lat="47.54049" lon="-1.36619">
        <ele>44</ele>
        <time>2021-05-30T07:48:01Z</time>
      </trkpt>
      <trkpt lat="47.5406" lon="-1.36649">
        <ele>43.97</ele>
        <time>2021-05-30T07:47:45Z</time>
      </trkpt>
      <trkpt lat="47.5407" lon="-1.36679">
        <ele>42.99</ele>
        <time>2021-05-30T07:47:29Z</time>
      </trkpt>
      <trkpt lat="47.54082" lon="-1.36706">
        <ele>42.1</ele>
        <time>2021-05-30T07:47:13Z</time>
      </trkpt>
      <trkpt lat="47.54098" lon="-1.36726">
        <ele>40.01</ele>
        <time>2021-05-30T07:46:57Z</time>
      </trkpt>
      <trkpt lat="47.54115" lon="-1.3675">
        <ele>41</ele>
        <time>2021-05-30T07:46:41Z</time>
      </trkpt>
      <trkpt lat="47.54131" lon="-1.36774">
        <ele>41</ele>
        <time>2021-05-30T07:46:25Z</time>
      </trkpt>
      <trkpt lat="47.54148" lon="-1.36794">
        <ele>41.01</ele>
        <time>2021-05-30T07:46:09Z</time>
      </trkpt>
      <trkpt lat="47.54162" lon="-1.36812">
        <ele>41.3</ele>
        <time>2021-05-30T07:45:57Z</time>
      </trkpt>
      <trkpt lat="47.54179" lon="-1.36825">
        <ele>42.03</ele>
        <time>2021-05-30T07:45:45Z</time>
      </trkpt>
      <trkpt lat="47.54198" lon="-1.36837">
        <ele>43</ele>
        <time>2021-05-30T07:45:29Z</time>
      </trkpt>
      <trkpt lat="47.54218" lon="-1.36848">
        <ele>43</ele>
        <time>2021-05-30T07:45:13Z</time>
      </trkpt>
      <trkpt lat="47.54239" lon="-1.36866">
        <ele>43.05</ele>
        <time>2021-05-30T07:44:57Z</time>
      </trkpt>
      <trkpt lat="47.54257" lon="-1.36889">
        <ele>45</ele>
        <time>2021-05-30T07:44:41Z</time>
      </trkpt>
      <trkpt lat="47.54274" lon="-1.36912">
        <ele>44.82</ele>
        <time>2021-05-30T07:44:25Z</time>
      </trkpt>
      <trkpt lat="47.54293" lon="-1.36933">
        <ele>43</ele>
        <time>2021-05-30T07:44:09Z</time>
      </trkpt>
      <trkpt lat="47.5431" lon="-1.36955">
        <ele>43</ele>
        <time>2021-05-30T07:43:53Z</time>
      </trkpt>
      <trkpt lat="47.54329" lon="-1.36976">
        <ele>43.3</ele>
        <time>2021-05-30T07:43:37Z</time>
      </trkpt>
      <trkpt lat="47.5435" lon="-1.36991">
        <ele>43.91</ele>
        <time>2021-05-30T07:43:21Z</time>
      </trkpt>
      <trkpt lat="47.54371" lon="-1.37007">
        <ele>43</ele>
        <time>2021-05-30T07:43:05Z</time>
      </trkpt>
      <trkpt lat="47.54392" lon="-1.37021">
        <ele>43</ele>
        <time>2021-05-30T07:42:49Z</time>
      </trkpt>
      <trkpt lat="47.54408" lon="-1.37032">
        <ele>43.09</ele>
        <time>2021-05-30T07:42:37Z</time>
      </trkpt>
      <trkpt lat="47.54426" lon="-1.37043">
        <ele>44</ele>
        <time>2021-05-30T07:42:25Z</time>
      </trkpt>
      <trkpt lat="47.54446" lon="-1.37055">
        <ele>44</ele>
        <time>2021-05-30T07:42:09Z</time>
      </trkpt>
      <trkpt lat="47.54466" lon="-1.37067">
        <ele>44</ele>
        <time>2021-05-30T07:41:53Z</time>
      </trkpt>
      <trkpt lat="47.54486" lon="-1.37081">
        <ele>43.72</ele>
        <time>2021-05-30T07:41:37Z</time>
      </trkpt>
      <trkpt lat="47.54504" lon="-1.371">
        <ele>45</ele>
        <time>2021-05-30T07:41:21Z</time>
      </trkpt>
      <trkpt lat="47.54518" lon="-1.37125">
        <ele>45</ele>
        <time>2021-05-30T07:41:05Z</time>
      </trkpt>
      <trkpt lat="47.54528" lon="-1.37147">
        <ele>44.97</ele>
        <time>2021-05-30T07:40:53Z</time>
      </trkpt>
      <trkpt lat="47.5454" lon="-1.37178">
        <ele>44</ele>
        <time>2021-05-30T07:40:37Z</time>
      </trkpt>
      <trkpt lat="47.5455" lon="-1.372">
        <ele>44</ele>
        <time>2021-05-30T07:40:25Z</time>
      </trkpt>
      <trkpt lat="47.54561" lon="-1.37226">
        <ele>43.99</ele>
        <time>2021-05-30T07:40:09Z</time>
      </trkpt>
      <trkpt lat="47.54575" lon="-1.37252">
        <ele>43.05</ele>
        <time>2021-05-30T07:39:53Z</time>
      </trkpt>
      <trkpt lat="47.54589" lon="-1.37279">
        <ele>45</ele>
        <time>2021-05-30T07:39:37Z</time>
      </trkpt>
      <trkpt lat="47.54605" lon="-1.37303">
        <ele>45</ele>
        <time>2021-05-30T07:39:21Z</time>
      </trkpt>
      <trkpt lat="47.54621" lon="-1.37325">
        <ele>45</ele>
        <time>2021-05-30T07:39:05Z</time>
      </trkpt>
      <trkpt lat="47.54637" lon="-1.37348">
        <ele>45</ele>
        <time>2021-05-30T07:38:49Z</time>
      </trkpt>
      <trkpt lat="47.54653" lon="-1.3737">
        <ele>45.02</ele>
        <time>2021-05-30T07:38:33Z</time>
      </trkpt>
      <trkpt lat="47.54668" lon="-1.37392">
        <ele>48</ele>
        <time>2021-05-30T07:38:17Z</time>
      </trkpt>
      <trkpt lat="47.54683" lon="-1.37415">
        <ele>47.7</ele>
        <time>2021-05-30T07:38:01Z</time>
      </trkpt>
      <trkpt lat="47.54698" lon="-1.37442">
        <ele>47</ele>
        <time>2021-05-30T07:37:45Z</time>
      </trkpt>
      <trkpt lat="47.54711" lon="-1.37469">
        <ele>47</ele>
        <time>2021-05-30T07:37:29Z</time>
      </trkpt>
      <trkpt lat="47.54722" lon="-1.37494">
        <ele>46.7</ele>
        <time>2021-05-30T07:37:13Z</time>
      </trkpt>
      <trkpt lat="47.5473" lon="-1.37523">
        <ele>46</ele>
        <time>2021-05-30T07:36:57Z</time>
      </trkpt>
      <trkpt lat="47.54737" lon="-1.37554">
        <ele>46.03</ele>
        <time>2021-05-30T07:36:41Z</time>
      </trkpt>
      <trkpt lat="47.5475" lon="-1.37574">
        <ele>50</ele>
        <time>2021-05-30T07:36:25Z</time>
      </trkpt>
      <trkpt lat="47.54771" lon="-1.37582">
        <ele>50</ele>
        <time>2021-05-30T07:36:09Z</time>
      </trkpt>
      <trkpt lat="47.54793" lon="-1.37581">
        <ele>50</ele>
        <time>2021-05-30T07:35:53Z</time>
      </trkpt>
      <trkpt lat="47.54815" lon="-1.3758">
        <ele>50.05</ele>
        <time>2021-05-30T07:35:37Z</time>
      </trkpt>
      <trkpt lat="47.54837" lon="-1.3758">
        <ele>56</ele>
        <time>2021-05-30T07:35:21Z</time>
      </trkpt>
      <trkpt lat="47.5486" lon="-1.3758">
        <ele>56</ele>
        <time>2021-05-30T07:35:05Z</time>
      </trkpt>
      <trkpt lat="47.54883" lon="-1.37579">
        <ele>56</ele>
        <time>2021-05-30T07:34:49Z</time>
      </trkpt>
      <trkpt lat="47.54902" lon="-1.37579">
        <ele>56.03</ele>
        <time>2021-05-30T07:34:37Z</time>
      </trkpt>
      <trkpt lat="47.54925" lon="-1.37578">
        <ele>57</ele>
        <time>2021-05-30T07:34:21Z</time>
      </trkpt>
      <trkpt lat="47.54946" lon="-1.37577">
        <ele>57</ele>
        <time>2021-05-30T07:34:05Z</time>
      </trkpt>
      <trkpt lat="47.54968" lon="-1.37576">
        <ele>57</ele>
        <time>2021-05-30T07:33:49Z</time>
      </trkpt>
      <trkpt lat="47.54991" lon="-1.37575">
        <ele>57.18</ele>
        <time>2021-05-30T07:33:33Z</time>
      </trkpt>
      <trkpt lat="47.55012" lon="-1.37574">
        <ele>59</ele>
        <time>2021-05-30T07:33:17Z</time>
      </trkpt>
      <trkpt lat="47.55032" lon="-1.37575">
        <ele>59</ele>
        <time>2021-05-30T07:33:01Z</time>
      </trkpt>
      <trkpt lat="47.55055" lon="-1.37574">
        <ele>59</ele>
        <time>2021-05-30T07:32:45Z</time>
      </trkpt>
      <trkpt lat="47.55073" lon="-1.3757">
        <ele>59.05</ele>
        <time>2021-05-30T07:32:29Z</time>
      </trkpt>
      <trkpt lat="47.55092" lon="-1.3757">
        <ele>60.98</ele>
        <time>2021-05-30T07:32:13Z</time>
      </trkpt>
      <trkpt lat="47.551" lon="-1.37594">
        <ele>59</ele>
        <time>2021-05-30T07:31:53Z</time>
      </trkpt>
      <trkpt lat="47.55085" lon="-1.37611">
        <ele>59</ele>
        <time>2021-05-30T07:31:33Z</time>
      </trkpt>
      <trkpt lat="47.55084" lon="-1.37639">
        <ele>58.98</ele>
        <time>2021-05-30T07:31:17Z</time>
      </trkpt>
      <trkpt lat="47.55084" lon="-1.37667">
        <ele>57</ele>
        <time>2021-05-30T07:31:01Z</time>
      </trkpt>
      <trkpt lat="47.55085" lon="-1.37695">
        <ele>56.97</ele>
        <time>2021-05-30T07:30:45Z</time>
      </trkpt>
      <trkpt lat="47.55079" lon="-1.37723">
        <ele>56</ele>
        <time>2021-05-30T07:30:29Z</time>
      </trkpt>
    </trkseg>
  </trk>
</gpx>